<?xml version="1.0" encoding="UTF-8" standalone="no" ?>
<gpx xmlns="http://www.topografix.com/GPX/1/1" xmlns:xsi="http://www.w3.org/2001/XMLSchema-instance" xsi:schemaLocation="http://www.topografix.com/GPX/1/1 http://www.topografix.com/GPX/1/1/gpx.xsd" version="1.1" creator="VisuGPX - https://www.visugpx.com">
  <metadata>
    <name>Toussière face Ouest</name>
    <desc><![CDATA[grp_trc:]]></desc>
  </metadata>
  <trk>
    <name><![CDATA[Toussière face Ouest]]></name>
    <cmt><![CDATA[Rando]]></cmt>
    <desc><![CDATA[<html dir="ltr"><head></head><body contenteditable="true">comment ...<br>
----<br>
Groupe : [nouvelles]</body></html>]]></desc>
    <trkseg>
      <trkpt lat="44.69111" lon="5.65377">
        <ele>1331</ele>
        <time>2021-10-09T07:25:17Z</time>
      </trkpt>
      <trkpt lat="44.69104" lon="5.6538">
        <ele>1329</ele>
        <time>2021-10-09T07:25:40Z</time>
      </trkpt>
      <trkpt lat="44.69086" lon="5.65383">
        <ele>1326</ele>
        <time>2021-10-09T07:26:06Z</time>
      </trkpt>
      <trkpt lat="44.69079" lon="5.65375">
        <ele>1327</ele>
        <time>2021-10-09T07:26:22Z</time>
      </trkpt>
      <trkpt lat="44.69071" lon="5.65371">
        <ele>1328</ele>
        <time>2021-10-09T07:27:01Z</time>
      </trkpt>
      <trkpt lat="44.69062" lon="5.65364">
        <ele>1328</ele>
        <time>2021-10-09T07:27:15Z</time>
      </trkpt>
      <trkpt lat="44.69056" lon="5.65351">
        <ele>1329</ele>
        <time>2021-10-09T07:27:29Z</time>
      </trkpt>
      <trkpt lat="44.69045" lon="5.65347">
        <ele>1331</ele>
        <time>2021-10-09T07:27:46Z</time>
      </trkpt>
      <trkpt lat="44.69039" lon="5.65351">
        <ele>1331</ele>
        <time>2021-10-09T07:28:50Z</time>
      </trkpt>
      <trkpt lat="44.69014" lon="5.65346">
        <ele>1336</ele>
        <time>2021-10-09T07:29:17Z</time>
      </trkpt>
      <trkpt lat="44.68981" lon="5.65338">
        <ele>1339</ele>
        <time>2021-10-09T07:29:47Z</time>
      </trkpt>
      <trkpt lat="44.68968" lon="5.65336">
        <ele>1342</ele>
        <time>2021-10-09T07:29:57Z</time>
      </trkpt>
      <trkpt lat="44.68948" lon="5.65333">
        <ele>1345</ele>
        <time>2021-10-09T07:30:18Z</time>
      </trkpt>
      <trkpt lat="44.6893" lon="5.65326">
        <ele>1349</ele>
        <time>2021-10-09T07:30:35Z</time>
      </trkpt>
      <trkpt lat="44.68918" lon="5.65323">
        <ele>1352</ele>
        <time>2021-10-09T07:30:51Z</time>
      </trkpt>
      <trkpt lat="44.68901" lon="5.65323">
        <ele>1355</ele>
        <time>2021-10-09T07:31:09Z</time>
      </trkpt>
      <trkpt lat="44.6889" lon="5.65317">
        <ele>1358</ele>
        <time>2021-10-09T07:31:23Z</time>
      </trkpt>
      <trkpt lat="44.68871" lon="5.65296">
        <ele>1361</ele>
        <time>2021-10-09T07:31:43Z</time>
      </trkpt>
      <trkpt lat="44.68854" lon="5.65287">
        <ele>1365</ele>
        <time>2021-10-09T07:32:03Z</time>
      </trkpt>
      <trkpt lat="44.68847" lon="5.65276">
        <ele>1368</ele>
        <time>2021-10-09T07:32:18Z</time>
      </trkpt>
      <trkpt lat="44.68825" lon="5.6526">
        <ele>1372</ele>
        <time>2021-10-09T07:32:44Z</time>
      </trkpt>
      <trkpt lat="44.68815" lon="5.65259">
        <ele>1375</ele>
        <time>2021-10-09T07:32:58Z</time>
      </trkpt>
      <trkpt lat="44.68813" lon="5.65271">
        <ele>1376</ele>
        <time>2021-10-09T07:33:11Z</time>
      </trkpt>
      <trkpt lat="44.68807" lon="5.65277">
        <ele>1377</ele>
        <time>2021-10-09T07:33:16Z</time>
      </trkpt>
      <trkpt lat="44.68785" lon="5.65313">
        <ele>1379</ele>
        <time>2021-10-09T07:33:48Z</time>
      </trkpt>
      <trkpt lat="44.6878" lon="5.6532">
        <ele>1378</ele>
        <time>2021-10-09T07:33:56Z</time>
      </trkpt>
      <trkpt lat="44.68772" lon="5.65325">
        <ele>1377</ele>
        <time>2021-10-09T07:34:04Z</time>
      </trkpt>
      <trkpt lat="44.68768" lon="5.65333">
        <ele>1377</ele>
        <time>2021-10-09T07:34:09Z</time>
      </trkpt>
      <trkpt lat="44.68756" lon="5.65345">
        <ele>1380</ele>
        <time>2021-10-09T07:34:25Z</time>
      </trkpt>
      <trkpt lat="44.68743" lon="5.65351">
        <ele>1384</ele>
        <time>2021-10-09T07:34:36Z</time>
      </trkpt>
      <trkpt lat="44.68733" lon="5.65365">
        <ele>1387</ele>
        <time>2021-10-09T07:34:48Z</time>
      </trkpt>
      <trkpt lat="44.68728" lon="5.65371">
        <ele>1389</ele>
        <time>2021-10-09T07:34:53Z</time>
      </trkpt>
      <trkpt lat="44.68717" lon="5.65381">
        <ele>1393</ele>
        <time>2021-10-09T07:35:03Z</time>
      </trkpt>
      <trkpt lat="44.68706" lon="5.65389">
        <ele>1397</ele>
        <time>2021-10-09T07:35:16Z</time>
      </trkpt>
      <trkpt lat="44.68697" lon="5.65396">
        <ele>1401</ele>
        <time>2021-10-09T07:35:31Z</time>
      </trkpt>
      <trkpt lat="44.68687" lon="5.65397">
        <ele>1401</ele>
        <time>2021-10-09T07:35:46Z</time>
      </trkpt>
      <trkpt lat="44.6868" lon="5.65397">
        <ele>1403</ele>
        <time>2021-10-09T07:35:53Z</time>
      </trkpt>
      <trkpt lat="44.68664" lon="5.65396">
        <ele>1410</ele>
        <time>2021-10-09T07:36:14Z</time>
      </trkpt>
      <trkpt lat="44.68653" lon="5.65399">
        <ele>1412</ele>
        <time>2021-10-09T07:36:25Z</time>
      </trkpt>
      <trkpt lat="44.68644" lon="5.65405">
        <ele>1414</ele>
        <time>2021-10-09T07:36:42Z</time>
      </trkpt>
      <trkpt lat="44.68632" lon="5.65402">
        <ele>1417</ele>
        <time>2021-10-09T07:36:59Z</time>
      </trkpt>
      <trkpt lat="44.68621" lon="5.65411">
        <ele>1419</ele>
        <time>2021-10-09T07:37:14Z</time>
      </trkpt>
      <trkpt lat="44.68599" lon="5.65407">
        <ele>1418</ele>
        <time>2021-10-09T07:37:43Z</time>
      </trkpt>
      <trkpt lat="44.68588" lon="5.6541">
        <ele>1421</ele>
        <time>2021-10-09T07:38:05Z</time>
      </trkpt>
      <trkpt lat="44.68577" lon="5.65414">
        <ele>1424</ele>
        <time>2021-10-09T07:38:20Z</time>
      </trkpt>
      <trkpt lat="44.68569" lon="5.65409">
        <ele>1428</ele>
        <time>2021-10-09T07:38:37Z</time>
      </trkpt>
      <trkpt lat="44.68563" lon="5.654">
        <ele>1430</ele>
        <time>2021-10-09T07:38:53Z</time>
      </trkpt>
      <trkpt lat="44.68555" lon="5.65399">
        <ele>1436</ele>
        <time>2021-10-09T07:40:30Z</time>
      </trkpt>
      <trkpt lat="44.68557" lon="5.65388">
        <ele>1438</ele>
        <time>2021-10-09T07:44:21Z</time>
      </trkpt>
      <trkpt lat="44.68556" lon="5.65374">
        <ele>1441</ele>
        <time>2021-10-09T07:44:37Z</time>
      </trkpt>
      <trkpt lat="44.68559" lon="5.65362">
        <ele>1443</ele>
        <time>2021-10-09T07:44:50Z</time>
      </trkpt>
      <trkpt lat="44.68542" lon="5.65342">
        <ele>1444</ele>
        <time>2021-10-09T07:45:14Z</time>
      </trkpt>
      <trkpt lat="44.68532" lon="5.65338">
        <ele>1445</ele>
        <time>2021-10-09T07:45:25Z</time>
      </trkpt>
      <trkpt lat="44.68491" lon="5.65307">
        <ele>1447</ele>
        <time>2021-10-09T07:46:05Z</time>
      </trkpt>
      <trkpt lat="44.68478" lon="5.65308">
        <ele>1448</ele>
        <time>2021-10-09T07:46:17Z</time>
      </trkpt>
      <trkpt lat="44.68445" lon="5.65297">
        <ele>1447</ele>
        <time>2021-10-09T07:46:48Z</time>
      </trkpt>
      <trkpt lat="44.68437" lon="5.65292">
        <ele>1447</ele>
        <time>2021-10-09T07:46:56Z</time>
      </trkpt>
      <trkpt lat="44.68432" lon="5.65285">
        <ele>1448</ele>
        <time>2021-10-09T07:47:06Z</time>
      </trkpt>
      <trkpt lat="44.68395" lon="5.6526">
        <ele>1446</ele>
        <time>2021-10-09T07:47:49Z</time>
      </trkpt>
      <trkpt lat="44.68384" lon="5.65254">
        <ele>1447</ele>
        <time>2021-10-09T07:48:02Z</time>
      </trkpt>
      <trkpt lat="44.68376" lon="5.6524">
        <ele>1448</ele>
        <time>2021-10-09T07:48:13Z</time>
      </trkpt>
      <trkpt lat="44.68373" lon="5.65218">
        <ele>1453</ele>
        <time>2021-10-09T07:48:28Z</time>
      </trkpt>
      <trkpt lat="44.6837" lon="5.65208">
        <ele>1452</ele>
        <time>2021-10-09T07:48:34Z</time>
      </trkpt>
      <trkpt lat="44.68361" lon="5.65193">
        <ele>1453</ele>
        <time>2021-10-09T07:48:48Z</time>
      </trkpt>
      <trkpt lat="44.68352" lon="5.65179">
        <ele>1456</ele>
        <time>2021-10-09T07:49:02Z</time>
      </trkpt>
      <trkpt lat="44.68342" lon="5.65163">
        <ele>1458</ele>
        <time>2021-10-09T07:49:16Z</time>
      </trkpt>
      <trkpt lat="44.68335" lon="5.65145">
        <ele>1458</ele>
        <time>2021-10-09T07:49:27Z</time>
      </trkpt>
      <trkpt lat="44.68326" lon="5.6513">
        <ele>1456</ele>
        <time>2021-10-09T07:49:38Z</time>
      </trkpt>
      <trkpt lat="44.68298" lon="5.65114">
        <ele>1457</ele>
        <time>2021-10-09T07:50:05Z</time>
      </trkpt>
      <trkpt lat="44.68285" lon="5.65115">
        <ele>1460</ele>
        <time>2021-10-09T07:50:19Z</time>
      </trkpt>
      <trkpt lat="44.68271" lon="5.65111">
        <ele>1459</ele>
        <time>2021-10-09T07:50:38Z</time>
      </trkpt>
      <trkpt lat="44.68257" lon="5.65117">
        <ele>1459</ele>
        <time>2021-10-09T07:50:50Z</time>
      </trkpt>
      <trkpt lat="44.6825" lon="5.65117">
        <ele>1460</ele>
        <time>2021-10-09T07:50:57Z</time>
      </trkpt>
      <trkpt lat="44.68235" lon="5.65111">
        <ele>1459</ele>
        <time>2021-10-09T07:51:14Z</time>
      </trkpt>
      <trkpt lat="44.68205" lon="5.65089">
        <ele>1459</ele>
        <time>2021-10-09T07:51:51Z</time>
      </trkpt>
      <trkpt lat="44.68183" lon="5.65058">
        <ele>1458</ele>
        <time>2021-10-09T07:52:16Z</time>
      </trkpt>
      <trkpt lat="44.68173" lon="5.65036">
        <ele>1458</ele>
        <time>2021-10-09T07:52:33Z</time>
      </trkpt>
      <trkpt lat="44.6816" lon="5.6502">
        <ele>1457</ele>
        <time>2021-10-09T07:52:49Z</time>
      </trkpt>
      <trkpt lat="44.68148" lon="5.64994">
        <ele>1457</ele>
        <time>2021-10-09T07:53:10Z</time>
      </trkpt>
      <trkpt lat="44.68127" lon="5.64988">
        <ele>1459</ele>
        <time>2021-10-09T07:53:41Z</time>
      </trkpt>
      <trkpt lat="44.68092" lon="5.64936">
        <ele>1459</ele>
        <time>2021-10-09T07:54:21Z</time>
      </trkpt>
      <trkpt lat="44.68085" lon="5.64926">
        <ele>1455</ele>
        <time>2021-10-09T07:54:33Z</time>
      </trkpt>
      <trkpt lat="44.68066" lon="5.64911">
        <ele>1454</ele>
        <time>2021-10-09T07:55:10Z</time>
      </trkpt>
      <trkpt lat="44.68057" lon="5.64905">
        <ele>1456</ele>
        <time>2021-10-09T07:57:12Z</time>
      </trkpt>
      <trkpt lat="44.68029" lon="5.64887">
        <ele>1452</ele>
        <time>2021-10-09T07:57:39Z</time>
      </trkpt>
      <trkpt lat="44.68007" lon="5.64881">
        <ele>1450</ele>
        <time>2021-10-09T07:57:53Z</time>
      </trkpt>
      <trkpt lat="44.67996" lon="5.64871">
        <ele>1449</ele>
        <time>2021-10-09T07:58:03Z</time>
      </trkpt>
      <trkpt lat="44.67967" lon="5.64826">
        <ele>1447</ele>
        <time>2021-10-09T07:58:43Z</time>
      </trkpt>
      <trkpt lat="44.67961" lon="5.64812">
        <ele>1449</ele>
        <time>2021-10-09T07:59:12Z</time>
      </trkpt>
      <trkpt lat="44.67939" lon="5.64808">
        <ele>1448</ele>
        <time>2021-10-09T07:59:33Z</time>
      </trkpt>
      <trkpt lat="44.67927" lon="5.64798">
        <ele>1447</ele>
        <time>2021-10-09T07:59:47Z</time>
      </trkpt>
      <trkpt lat="44.67886" lon="5.64768">
        <ele>1443</ele>
        <time>2021-10-09T08:00:23Z</time>
      </trkpt>
      <trkpt lat="44.67879" lon="5.64754">
        <ele>1442</ele>
        <time>2021-10-09T08:00:31Z</time>
      </trkpt>
      <trkpt lat="44.67864" lon="5.64739">
        <ele>1441</ele>
        <time>2021-10-09T08:00:48Z</time>
      </trkpt>
      <trkpt lat="44.67853" lon="5.64735">
        <ele>1444</ele>
        <time>2021-10-09T08:01:09Z</time>
      </trkpt>
      <trkpt lat="44.67838" lon="5.64753">
        <ele>1445</ele>
        <time>2021-10-09T08:01:42Z</time>
      </trkpt>
      <trkpt lat="44.67839" lon="5.64763">
        <ele>1448</ele>
        <time>2021-10-09T08:01:51Z</time>
      </trkpt>
      <trkpt lat="44.67828" lon="5.64811">
        <ele>1449</ele>
        <time>2021-10-09T08:02:20Z</time>
      </trkpt>
      <trkpt lat="44.67813" lon="5.64836">
        <ele>1449</ele>
        <time>2021-10-09T08:02:41Z</time>
      </trkpt>
      <trkpt lat="44.67792" lon="5.64847">
        <ele>1447</ele>
        <time>2021-10-09T08:03:01Z</time>
      </trkpt>
      <trkpt lat="44.67764" lon="5.64851">
        <ele>1446</ele>
        <time>2021-10-09T08:03:24Z</time>
      </trkpt>
      <trkpt lat="44.67754" lon="5.64844">
        <ele>1446</ele>
        <time>2021-10-09T08:03:43Z</time>
      </trkpt>
      <trkpt lat="44.67733" lon="5.64859">
        <ele>1448</ele>
        <time>2021-10-09T08:04:13Z</time>
      </trkpt>
      <trkpt lat="44.67705" lon="5.64909">
        <ele>1450</ele>
        <time>2021-10-09T08:04:58Z</time>
      </trkpt>
      <trkpt lat="44.6769" lon="5.64937">
        <ele>1456</ele>
        <time>2021-10-09T08:05:28Z</time>
      </trkpt>
      <trkpt lat="44.67679" lon="5.64948">
        <ele>1456</ele>
        <time>2021-10-09T08:05:40Z</time>
      </trkpt>
      <trkpt lat="44.67671" lon="5.64951">
        <ele>1455</ele>
        <time>2021-10-09T08:05:49Z</time>
      </trkpt>
      <trkpt lat="44.67665" lon="5.64956">
        <ele>1456</ele>
        <time>2021-10-09T08:05:57Z</time>
      </trkpt>
      <trkpt lat="44.67658" lon="5.64965">
        <ele>1457</ele>
        <time>2021-10-09T08:06:03Z</time>
      </trkpt>
      <trkpt lat="44.67628" lon="5.64989">
        <ele>1461</ele>
        <time>2021-10-09T08:06:32Z</time>
      </trkpt>
      <trkpt lat="44.67597" lon="5.64997">
        <ele>1463</ele>
        <time>2021-10-09T08:07:25Z</time>
      </trkpt>
      <trkpt lat="44.67586" lon="5.64999">
        <ele>1469</ele>
        <time>2021-10-09T08:07:46Z</time>
      </trkpt>
      <trkpt lat="44.67576" lon="5.64998">
        <ele>1471</ele>
        <time>2021-10-09T08:08:04Z</time>
      </trkpt>
      <trkpt lat="44.67572" lon="5.6499">
        <ele>1478</ele>
        <time>2021-10-09T08:08:27Z</time>
      </trkpt>
      <trkpt lat="44.67562" lon="5.6499">
        <ele>1479</ele>
        <time>2021-10-09T08:08:36Z</time>
      </trkpt>
      <trkpt lat="44.67554" lon="5.64998">
        <ele>1489</ele>
        <time>2021-10-09T08:09:02Z</time>
      </trkpt>
      <trkpt lat="44.67547" lon="5.65013">
        <ele>1490</ele>
        <time>2021-10-09T08:09:25Z</time>
      </trkpt>
      <trkpt lat="44.67544" lon="5.65023">
        <ele>1491</ele>
        <time>2021-10-09T08:09:38Z</time>
      </trkpt>
      <trkpt lat="44.67537" lon="5.65031">
        <ele>1490</ele>
        <time>2021-10-09T08:09:47Z</time>
      </trkpt>
      <trkpt lat="44.67532" lon="5.65054">
        <ele>1493</ele>
        <time>2021-10-09T08:10:10Z</time>
      </trkpt>
      <trkpt lat="44.67539" lon="5.65063">
        <ele>1494</ele>
        <time>2021-10-09T08:10:18Z</time>
      </trkpt>
      <trkpt lat="44.67539" lon="5.65074">
        <ele>1495</ele>
        <time>2021-10-09T08:10:24Z</time>
      </trkpt>
      <trkpt lat="44.6754" lon="5.65103">
        <ele>1502</ele>
        <time>2021-10-09T08:10:48Z</time>
      </trkpt>
      <trkpt lat="44.67542" lon="5.65124">
        <ele>1504</ele>
        <time>2021-10-09T08:11:09Z</time>
      </trkpt>
      <trkpt lat="44.67548" lon="5.65133">
        <ele>1507</ele>
        <time>2021-10-09T08:11:19Z</time>
      </trkpt>
      <trkpt lat="44.67547" lon="5.65145">
        <ele>1511</ele>
        <time>2021-10-09T08:11:29Z</time>
      </trkpt>
      <trkpt lat="44.6755" lon="5.65155">
        <ele>1512</ele>
        <time>2021-10-09T08:11:39Z</time>
      </trkpt>
      <trkpt lat="44.67552" lon="5.65174">
        <ele>1513</ele>
        <time>2021-10-09T08:11:56Z</time>
      </trkpt>
      <trkpt lat="44.67548" lon="5.65193">
        <ele>1516</ele>
        <time>2021-10-09T08:12:13Z</time>
      </trkpt>
      <trkpt lat="44.67539" lon="5.65207">
        <ele>1517</ele>
        <time>2021-10-09T08:12:26Z</time>
      </trkpt>
      <trkpt lat="44.67521" lon="5.65216">
        <ele>1517</ele>
        <time>2021-10-09T08:12:45Z</time>
      </trkpt>
      <trkpt lat="44.67513" lon="5.65228">
        <ele>1516</ele>
        <time>2021-10-09T08:12:56Z</time>
      </trkpt>
      <trkpt lat="44.67493" lon="5.65243">
        <ele>1513</ele>
        <time>2021-10-09T08:13:19Z</time>
      </trkpt>
      <trkpt lat="44.67483" lon="5.65247">
        <ele>1513</ele>
        <time>2021-10-09T08:13:29Z</time>
      </trkpt>
      <trkpt lat="44.67473" lon="5.65244">
        <ele>1514</ele>
        <time>2021-10-09T08:16:26Z</time>
      </trkpt>
      <trkpt lat="44.67464" lon="5.65237">
        <ele>1519</ele>
        <time>2021-10-09T08:16:35Z</time>
      </trkpt>
      <trkpt lat="44.67433" lon="5.65225">
        <ele>1516</ele>
        <time>2021-10-09T08:17:04Z</time>
      </trkpt>
      <trkpt lat="44.67427" lon="5.65216">
        <ele>1515</ele>
        <time>2021-10-09T08:17:09Z</time>
      </trkpt>
      <trkpt lat="44.67407" lon="5.65209">
        <ele>1514</ele>
        <time>2021-10-09T08:17:28Z</time>
      </trkpt>
      <trkpt lat="44.67394" lon="5.65211">
        <ele>1513</ele>
        <time>2021-10-09T08:17:39Z</time>
      </trkpt>
      <trkpt lat="44.67379" lon="5.6521">
        <ele>1510</ele>
        <time>2021-10-09T08:17:52Z</time>
      </trkpt>
      <trkpt lat="44.67373" lon="5.65201">
        <ele>1509</ele>
        <time>2021-10-09T08:17:58Z</time>
      </trkpt>
      <trkpt lat="44.67365" lon="5.65202">
        <ele>1506</ele>
        <time>2021-10-09T08:18:06Z</time>
      </trkpt>
      <trkpt lat="44.67357" lon="5.65195">
        <ele>1505</ele>
        <time>2021-10-09T08:18:12Z</time>
      </trkpt>
      <trkpt lat="44.67342" lon="5.65167">
        <ele>1500</ele>
        <time>2021-10-09T08:18:25Z</time>
      </trkpt>
      <trkpt lat="44.67329" lon="5.65157">
        <ele>1502</ele>
        <time>2021-10-09T08:18:36Z</time>
      </trkpt>
      <trkpt lat="44.67319" lon="5.65144">
        <ele>1505</ele>
        <time>2021-10-09T08:18:48Z</time>
      </trkpt>
      <trkpt lat="44.6731" lon="5.65125">
        <ele>1504</ele>
        <time>2021-10-09T08:18:58Z</time>
      </trkpt>
      <trkpt lat="44.67302" lon="5.6512">
        <ele>1506</ele>
        <time>2021-10-09T08:19:04Z</time>
      </trkpt>
      <trkpt lat="44.6728" lon="5.65118">
        <ele>1504</ele>
        <time>2021-10-09T08:19:23Z</time>
      </trkpt>
      <trkpt lat="44.67254" lon="5.65097">
        <ele>1500</ele>
        <time>2021-10-09T08:19:42Z</time>
      </trkpt>
      <trkpt lat="44.67246" lon="5.65097">
        <ele>1503</ele>
        <time>2021-10-09T08:19:48Z</time>
      </trkpt>
      <trkpt lat="44.67239" lon="5.6509">
        <ele>1505</ele>
        <time>2021-10-09T08:19:54Z</time>
      </trkpt>
      <trkpt lat="44.67224" lon="5.6509">
        <ele>1505</ele>
        <time>2021-10-09T08:20:05Z</time>
      </trkpt>
      <trkpt lat="44.672" lon="5.651">
        <ele>1501</ele>
        <time>2021-10-09T08:20:22Z</time>
      </trkpt>
      <trkpt lat="44.67185" lon="5.65106">
        <ele>1499</ele>
        <time>2021-10-09T08:20:33Z</time>
      </trkpt>
      <trkpt lat="44.67171" lon="5.65102">
        <ele>1498</ele>
        <time>2021-10-09T08:20:44Z</time>
      </trkpt>
      <trkpt lat="44.67164" lon="5.65098">
        <ele>1496</ele>
        <time>2021-10-09T08:20:49Z</time>
      </trkpt>
      <trkpt lat="44.67157" lon="5.65096">
        <ele>1495</ele>
        <time>2021-10-09T08:20:54Z</time>
      </trkpt>
      <trkpt lat="44.6715" lon="5.6509">
        <ele>1494</ele>
        <time>2021-10-09T08:20:59Z</time>
      </trkpt>
      <trkpt lat="44.67143" lon="5.65073">
        <ele>1495</ele>
        <time>2021-10-09T08:21:05Z</time>
      </trkpt>
      <trkpt lat="44.67113" lon="5.65049">
        <ele>1496</ele>
        <time>2021-10-09T08:21:28Z</time>
      </trkpt>
      <trkpt lat="44.67097" lon="5.65012">
        <ele>1494</ele>
        <time>2021-10-09T08:21:51Z</time>
      </trkpt>
      <trkpt lat="44.67081" lon="5.65005">
        <ele>1491</ele>
        <time>2021-10-09T08:22:05Z</time>
      </trkpt>
      <trkpt lat="44.67066" lon="5.64983">
        <ele>1492</ele>
        <time>2021-10-09T08:22:21Z</time>
      </trkpt>
      <trkpt lat="44.67058" lon="5.64978">
        <ele>1492</ele>
        <time>2021-10-09T08:22:26Z</time>
      </trkpt>
      <trkpt lat="44.67052" lon="5.6497">
        <ele>1492</ele>
        <time>2021-10-09T08:22:31Z</time>
      </trkpt>
      <trkpt lat="44.67045" lon="5.64969">
        <ele>1491</ele>
        <time>2021-10-09T08:22:37Z</time>
      </trkpt>
      <trkpt lat="44.67021" lon="5.64935">
        <ele>1490</ele>
        <time>2021-10-09T08:23:01Z</time>
      </trkpt>
      <trkpt lat="44.66994" lon="5.64929">
        <ele>1489</ele>
        <time>2021-10-09T08:23:20Z</time>
      </trkpt>
      <trkpt lat="44.66976" lon="5.64914">
        <ele>1489</ele>
        <time>2021-10-09T08:28:18Z</time>
      </trkpt>
      <trkpt lat="44.66969" lon="5.64918">
        <ele>1491</ele>
        <time>2021-10-09T08:28:28Z</time>
      </trkpt>
      <trkpt lat="44.6696" lon="5.64919">
        <ele>1491</ele>
        <time>2021-10-09T08:28:37Z</time>
      </trkpt>
      <trkpt lat="44.66952" lon="5.64918">
        <ele>1491</ele>
        <time>2021-10-09T08:28:51Z</time>
      </trkpt>
      <trkpt lat="44.66921" lon="5.64919">
        <ele>1492</ele>
        <time>2021-10-09T08:29:23Z</time>
      </trkpt>
      <trkpt lat="44.66898" lon="5.64931">
        <ele>1495</ele>
        <time>2021-10-09T08:29:50Z</time>
      </trkpt>
      <trkpt lat="44.66877" lon="5.64952">
        <ele>1498</ele>
        <time>2021-10-09T08:30:16Z</time>
      </trkpt>
      <trkpt lat="44.66866" lon="5.64954">
        <ele>1498</ele>
        <time>2021-10-09T08:30:28Z</time>
      </trkpt>
      <trkpt lat="44.66843" lon="5.64949">
        <ele>1506</ele>
        <time>2021-10-09T08:31:10Z</time>
      </trkpt>
      <trkpt lat="44.66832" lon="5.64946">
        <ele>1509</ele>
        <time>2021-10-09T08:31:21Z</time>
      </trkpt>
      <trkpt lat="44.66821" lon="5.64942">
        <ele>1513</ele>
        <time>2021-10-09T08:31:49Z</time>
      </trkpt>
      <trkpt lat="44.66799" lon="5.64943">
        <ele>1513</ele>
        <time>2021-10-09T08:32:33Z</time>
      </trkpt>
      <trkpt lat="44.66785" lon="5.6495">
        <ele>1512</ele>
        <time>2021-10-09T08:32:50Z</time>
      </trkpt>
      <trkpt lat="44.66767" lon="5.64948">
        <ele>1511</ele>
        <time>2021-10-09T08:33:23Z</time>
      </trkpt>
      <trkpt lat="44.66739" lon="5.64944">
        <ele>1516</ele>
        <time>2021-10-09T08:34:09Z</time>
      </trkpt>
      <trkpt lat="44.66719" lon="5.64942">
        <ele>1516</ele>
        <time>2021-10-09T08:34:40Z</time>
      </trkpt>
      <trkpt lat="44.66711" lon="5.64938">
        <ele>1518</ele>
        <time>2021-10-09T08:34:57Z</time>
      </trkpt>
      <trkpt lat="44.66698" lon="5.6493">
        <ele>1521</ele>
        <time>2021-10-09T08:35:19Z</time>
      </trkpt>
      <trkpt lat="44.66673" lon="5.64925">
        <ele>1522</ele>
        <time>2021-10-09T08:35:49Z</time>
      </trkpt>
      <trkpt lat="44.66656" lon="5.64919">
        <ele>1523</ele>
        <time>2021-10-09T08:36:13Z</time>
      </trkpt>
      <trkpt lat="44.66646" lon="5.64908">
        <ele>1525</ele>
        <time>2021-10-09T08:36:30Z</time>
      </trkpt>
      <trkpt lat="44.66612" lon="5.64896">
        <ele>1528</ele>
        <time>2021-10-09T08:37:04Z</time>
      </trkpt>
      <trkpt lat="44.666" lon="5.64897">
        <ele>1530</ele>
        <time>2021-10-09T08:37:25Z</time>
      </trkpt>
      <trkpt lat="44.66589" lon="5.64891">
        <ele>1533</ele>
        <time>2021-10-09T08:37:39Z</time>
      </trkpt>
      <trkpt lat="44.66578" lon="5.64885">
        <ele>1538</ele>
        <time>2021-10-09T08:37:57Z</time>
      </trkpt>
      <trkpt lat="44.66568" lon="5.64885">
        <ele>1542</ele>
        <time>2021-10-09T08:38:14Z</time>
      </trkpt>
      <trkpt lat="44.66558" lon="5.64879">
        <ele>1550</ele>
        <time>2021-10-09T08:38:51Z</time>
      </trkpt>
      <trkpt lat="44.66552" lon="5.64865">
        <ele>1555</ele>
        <time>2021-10-09T08:39:18Z</time>
      </trkpt>
      <trkpt lat="44.66541" lon="5.64864">
        <ele>1556</ele>
        <time>2021-10-09T08:39:37Z</time>
      </trkpt>
      <trkpt lat="44.66528" lon="5.64859">
        <ele>1554</ele>
        <time>2021-10-09T08:39:59Z</time>
      </trkpt>
      <trkpt lat="44.66517" lon="5.6485">
        <ele>1553</ele>
        <time>2021-10-09T08:40:13Z</time>
      </trkpt>
      <trkpt lat="44.66486" lon="5.64826">
        <ele>1549</ele>
        <time>2021-10-09T08:40:47Z</time>
      </trkpt>
      <trkpt lat="44.66447" lon="5.64805">
        <ele>1543</ele>
        <time>2021-10-09T08:41:22Z</time>
      </trkpt>
      <trkpt lat="44.66441" lon="5.64797">
        <ele>1543</ele>
        <time>2021-10-09T08:41:30Z</time>
      </trkpt>
      <trkpt lat="44.66428" lon="5.64787">
        <ele>1542</ele>
        <time>2021-10-09T08:41:39Z</time>
      </trkpt>
      <trkpt lat="44.66404" lon="5.64771">
        <ele>1545</ele>
        <time>2021-10-09T08:42:07Z</time>
      </trkpt>
      <trkpt lat="44.66365" lon="5.64768">
        <ele>1553</ele>
        <time>2021-10-09T08:42:51Z</time>
      </trkpt>
      <trkpt lat="44.66341" lon="5.64761">
        <ele>1554</ele>
        <time>2021-10-09T08:43:14Z</time>
      </trkpt>
      <trkpt lat="44.66312" lon="5.64761">
        <ele>1560</ele>
        <time>2021-10-09T08:43:51Z</time>
      </trkpt>
      <trkpt lat="44.66302" lon="5.64763">
        <ele>1566</ele>
        <time>2021-10-09T08:45:25Z</time>
      </trkpt>
      <trkpt lat="44.66268" lon="5.64777">
        <ele>1566</ele>
        <time>2021-10-09T08:46:13Z</time>
      </trkpt>
      <trkpt lat="44.66258" lon="5.64779">
        <ele>1567</ele>
        <time>2021-10-09T08:46:23Z</time>
      </trkpt>
      <trkpt lat="44.66231" lon="5.6478">
        <ele>1569</ele>
        <time>2021-10-09T08:46:49Z</time>
      </trkpt>
      <trkpt lat="44.66202" lon="5.64788">
        <ele>1571</ele>
        <time>2021-10-09T08:47:19Z</time>
      </trkpt>
      <trkpt lat="44.66193" lon="5.64787">
        <ele>1573</ele>
        <time>2021-10-09T08:47:28Z</time>
      </trkpt>
      <trkpt lat="44.66185" lon="5.64796">
        <ele>1574</ele>
        <time>2021-10-09T08:47:41Z</time>
      </trkpt>
      <trkpt lat="44.66162" lon="5.64812">
        <ele>1577</ele>
        <time>2021-10-09T08:48:08Z</time>
      </trkpt>
      <trkpt lat="44.66137" lon="5.64826">
        <ele>1580</ele>
        <time>2021-10-09T08:48:37Z</time>
      </trkpt>
      <trkpt lat="44.6613" lon="5.64837">
        <ele>1581</ele>
        <time>2021-10-09T08:48:49Z</time>
      </trkpt>
      <trkpt lat="44.6612" lon="5.64841">
        <ele>1582</ele>
        <time>2021-10-09T08:49:00Z</time>
      </trkpt>
      <trkpt lat="44.66101" lon="5.64854">
        <ele>1586</ele>
        <time>2021-10-09T08:49:30Z</time>
      </trkpt>
      <trkpt lat="44.6609" lon="5.64861">
        <ele>1589</ele>
        <time>2021-10-09T08:49:46Z</time>
      </trkpt>
      <trkpt lat="44.66078" lon="5.64863">
        <ele>1591</ele>
        <time>2021-10-09T08:49:55Z</time>
      </trkpt>
      <trkpt lat="44.66064" lon="5.64874">
        <ele>1591</ele>
        <time>2021-10-09T08:50:11Z</time>
      </trkpt>
      <trkpt lat="44.66052" lon="5.64882">
        <ele>1593</ele>
        <time>2021-10-09T08:50:25Z</time>
      </trkpt>
      <trkpt lat="44.66044" lon="5.64895">
        <ele>1593</ele>
        <time>2021-10-09T08:50:38Z</time>
      </trkpt>
      <trkpt lat="44.66038" lon="5.64904">
        <ele>1591</ele>
        <time>2021-10-09T08:50:57Z</time>
      </trkpt>
      <trkpt lat="44.66027" lon="5.64899">
        <ele>1593</ele>
        <time>2021-10-09T08:51:23Z</time>
      </trkpt>
      <trkpt lat="44.66015" lon="5.64899">
        <ele>1595</ele>
        <time>2021-10-09T08:51:35Z</time>
      </trkpt>
      <trkpt lat="44.66003" lon="5.64902">
        <ele>1596</ele>
        <time>2021-10-09T08:51:53Z</time>
      </trkpt>
      <trkpt lat="44.6599" lon="5.64899">
        <ele>1599</ele>
        <time>2021-10-09T08:52:11Z</time>
      </trkpt>
      <trkpt lat="44.65979" lon="5.64893">
        <ele>1601</ele>
        <time>2021-10-09T08:52:23Z</time>
      </trkpt>
      <trkpt lat="44.65968" lon="5.6489">
        <ele>1605</ele>
        <time>2021-10-09T08:52:40Z</time>
      </trkpt>
      <trkpt lat="44.65956" lon="5.64887">
        <ele>1609</ele>
        <time>2021-10-09T08:52:56Z</time>
      </trkpt>
      <trkpt lat="44.65933" lon="5.64889">
        <ele>1612</ele>
        <time>2021-10-09T08:53:31Z</time>
      </trkpt>
      <trkpt lat="44.65924" lon="5.64889">
        <ele>1614</ele>
        <time>2021-10-09T08:53:44Z</time>
      </trkpt>
      <trkpt lat="44.65908" lon="5.64877">
        <ele>1616</ele>
        <time>2021-10-09T08:54:03Z</time>
      </trkpt>
      <trkpt lat="44.65904" lon="5.64883">
        <ele>1627</ele>
        <time>2021-10-09T08:57:38Z</time>
      </trkpt>
      <trkpt lat="44.65921" lon="5.64906">
        <ele>1631</ele>
        <time>2021-10-09T08:58:15Z</time>
      </trkpt>
      <trkpt lat="44.65931" lon="5.64917">
        <ele>1633</ele>
        <time>2021-10-09T08:58:37Z</time>
      </trkpt>
      <trkpt lat="44.65952" lon="5.64932">
        <ele>1637</ele>
        <time>2021-10-09T08:59:14Z</time>
      </trkpt>
      <trkpt lat="44.65958" lon="5.64938">
        <ele>1638</ele>
        <time>2021-10-09T08:59:26Z</time>
      </trkpt>
      <trkpt lat="44.65969" lon="5.64941">
        <ele>1646</ele>
        <time>2021-10-09T09:00:04Z</time>
      </trkpt>
      <trkpt lat="44.65951" lon="5.6495">
        <ele>1652</ele>
        <time>2021-10-09T09:02:52Z</time>
      </trkpt>
      <trkpt lat="44.65933" lon="5.64946">
        <ele>1654</ele>
        <time>2021-10-09T09:03:11Z</time>
      </trkpt>
      <trkpt lat="44.65905" lon="5.64954">
        <ele>1655</ele>
        <time>2021-10-09T09:03:54Z</time>
      </trkpt>
      <trkpt lat="44.65914" lon="5.64966">
        <ele>1662</ele>
        <time>2021-10-09T09:04:33Z</time>
      </trkpt>
      <trkpt lat="44.65924" lon="5.64975">
        <ele>1667</ele>
        <time>2021-10-09T09:05:07Z</time>
      </trkpt>
      <trkpt lat="44.65937" lon="5.64979">
        <ele>1671</ele>
        <time>2021-10-09T09:05:30Z</time>
      </trkpt>
      <trkpt lat="44.65928" lon="5.64985">
        <ele>1675</ele>
        <time>2021-10-09T09:06:01Z</time>
      </trkpt>
      <trkpt lat="44.65907" lon="5.64983">
        <ele>1680</ele>
        <time>2021-10-09T09:06:32Z</time>
      </trkpt>
      <trkpt lat="44.65895" lon="5.64983">
        <ele>1682</ele>
        <time>2021-10-09T09:06:52Z</time>
      </trkpt>
      <trkpt lat="44.65882" lon="5.64981">
        <ele>1684</ele>
        <time>2021-10-09T09:07:08Z</time>
      </trkpt>
      <trkpt lat="44.6587" lon="5.64978">
        <ele>1686</ele>
        <time>2021-10-09T09:07:24Z</time>
      </trkpt>
      <trkpt lat="44.65858" lon="5.64976">
        <ele>1688</ele>
        <time>2021-10-09T09:07:47Z</time>
      </trkpt>
      <trkpt lat="44.65835" lon="5.6497">
        <ele>1693</ele>
        <time>2021-10-09T09:08:27Z</time>
      </trkpt>
      <trkpt lat="44.65827" lon="5.64963">
        <ele>1697</ele>
        <time>2021-10-09T09:09:19Z</time>
      </trkpt>
      <trkpt lat="44.65816" lon="5.64961">
        <ele>1697</ele>
        <time>2021-10-09T09:09:35Z</time>
      </trkpt>
      <trkpt lat="44.65804" lon="5.6496">
        <ele>1699</ele>
        <time>2021-10-09T09:09:46Z</time>
      </trkpt>
      <trkpt lat="44.65785" lon="5.64953">
        <ele>1702</ele>
        <time>2021-10-09T09:10:07Z</time>
      </trkpt>
      <trkpt lat="44.65777" lon="5.64955">
        <ele>1701</ele>
        <time>2021-10-09T09:12:06Z</time>
      </trkpt>
      <trkpt lat="44.65769" lon="5.6495">
        <ele>1703</ele>
        <time>2021-10-09T09:12:24Z</time>
      </trkpt>
      <trkpt lat="44.6576" lon="5.64952">
        <ele>1702</ele>
        <time>2021-10-09T09:12:40Z</time>
      </trkpt>
      <trkpt lat="44.65748" lon="5.64946">
        <ele>1702</ele>
        <time>2021-10-09T09:12:57Z</time>
      </trkpt>
      <trkpt lat="44.65743" lon="5.64927">
        <ele>1702</ele>
        <time>2021-10-09T09:13:21Z</time>
      </trkpt>
      <trkpt lat="44.65732" lon="5.64919">
        <ele>1702</ele>
        <time>2021-10-09T09:13:44Z</time>
      </trkpt>
      <trkpt lat="44.65721" lon="5.64918">
        <ele>1700</ele>
        <time>2021-10-09T09:14:17Z</time>
      </trkpt>
      <trkpt lat="44.65711" lon="5.64923">
        <ele>1702</ele>
        <time>2021-10-09T09:14:40Z</time>
      </trkpt>
      <trkpt lat="44.65701" lon="5.6491">
        <ele>1707</ele>
        <time>2021-10-09T09:15:10Z</time>
      </trkpt>
      <trkpt lat="44.65689" lon="5.64897">
        <ele>1708</ele>
        <time>2021-10-09T09:15:32Z</time>
      </trkpt>
      <trkpt lat="44.65681" lon="5.64895">
        <ele>1709</ele>
        <time>2021-10-09T09:15:44Z</time>
      </trkpt>
      <trkpt lat="44.65673" lon="5.64889">
        <ele>1713</ele>
        <time>2021-10-09T09:15:52Z</time>
      </trkpt>
      <trkpt lat="44.65661" lon="5.64888">
        <ele>1715</ele>
        <time>2021-10-09T09:16:19Z</time>
      </trkpt>
      <trkpt lat="44.65644" lon="5.64893">
        <ele>1719</ele>
        <time>2021-10-09T09:17:40Z</time>
      </trkpt>
      <trkpt lat="44.65631" lon="5.64883">
        <ele>1725</ele>
        <time>2021-10-09T09:18:40Z</time>
      </trkpt>
      <trkpt lat="44.65623" lon="5.64878">
        <ele>1730</ele>
        <time>2021-10-09T09:18:54Z</time>
      </trkpt>
      <trkpt lat="44.65616" lon="5.64883">
        <ele>1733</ele>
        <time>2021-10-09T09:19:12Z</time>
      </trkpt>
      <trkpt lat="44.65596" lon="5.64882">
        <ele>1733</ele>
        <time>2021-10-09T09:19:48Z</time>
      </trkpt>
      <trkpt lat="44.65586" lon="5.64873">
        <ele>1736</ele>
        <time>2021-10-09T09:21:01Z</time>
      </trkpt>
      <trkpt lat="44.65576" lon="5.64863">
        <ele>1737</ele>
        <time>2021-10-09T09:21:23Z</time>
      </trkpt>
      <trkpt lat="44.6557" lon="5.64847">
        <ele>1740</ele>
        <time>2021-10-09T09:21:48Z</time>
      </trkpt>
      <trkpt lat="44.65555" lon="5.64831">
        <ele>1743</ele>
        <time>2021-10-09T09:22:33Z</time>
      </trkpt>
      <trkpt lat="44.65542" lon="5.64821">
        <ele>1744</ele>
        <time>2021-10-09T09:22:57Z</time>
      </trkpt>
      <trkpt lat="44.65522" lon="5.6481">
        <ele>1747</ele>
        <time>2021-10-09T09:23:24Z</time>
      </trkpt>
      <trkpt lat="44.6551" lon="5.64812">
        <ele>1744</ele>
        <time>2021-10-09T09:23:44Z</time>
      </trkpt>
      <trkpt lat="44.65499" lon="5.64814">
        <ele>1740</ele>
        <time>2021-10-09T09:24:09Z</time>
      </trkpt>
      <trkpt lat="44.65495" lon="5.64805">
        <ele>1740</ele>
        <time>2021-10-09T09:24:23Z</time>
      </trkpt>
      <trkpt lat="44.65491" lon="5.64787">
        <ele>1743</ele>
        <time>2021-10-09T09:24:47Z</time>
      </trkpt>
      <trkpt lat="44.6547" lon="5.64768">
        <ele>1743</ele>
        <time>2021-10-09T09:25:46Z</time>
      </trkpt>
      <trkpt lat="44.65443" lon="5.64735">
        <ele>1743</ele>
        <time>2021-10-09T09:26:21Z</time>
      </trkpt>
      <trkpt lat="44.65434" lon="5.64732">
        <ele>1741</ele>
        <time>2021-10-09T09:26:32Z</time>
      </trkpt>
      <trkpt lat="44.65423" lon="5.6472">
        <ele>1741</ele>
        <time>2021-10-09T09:26:57Z</time>
      </trkpt>
      <trkpt lat="44.65419" lon="5.64706">
        <ele>1743</ele>
        <time>2021-10-09T09:27:09Z</time>
      </trkpt>
      <trkpt lat="44.6541" lon="5.64695">
        <ele>1742</ele>
        <time>2021-10-09T09:27:30Z</time>
      </trkpt>
      <trkpt lat="44.65402" lon="5.64685">
        <ele>1738</ele>
        <time>2021-10-09T09:27:56Z</time>
      </trkpt>
      <trkpt lat="44.6539" lon="5.64682">
        <ele>1732</ele>
        <time>2021-10-09T09:28:33Z</time>
      </trkpt>
      <trkpt lat="44.65383" lon="5.64677">
        <ele>1735</ele>
        <time>2021-10-09T09:29:32Z</time>
      </trkpt>
      <trkpt lat="44.65373" lon="5.64672">
        <ele>1739</ele>
        <time>2021-10-09T09:29:55Z</time>
      </trkpt>
      <trkpt lat="44.65376" lon="5.64656">
        <ele>1742</ele>
        <time>2021-10-09T09:32:27Z</time>
      </trkpt>
      <trkpt lat="44.6538" lon="5.64641">
        <ele>1740</ele>
        <time>2021-10-09T09:32:41Z</time>
      </trkpt>
      <trkpt lat="44.65369" lon="5.64638">
        <ele>1735</ele>
        <time>2021-10-09T09:33:13Z</time>
      </trkpt>
      <trkpt lat="44.65362" lon="5.64633">
        <ele>1735</ele>
        <time>2021-10-09T09:33:21Z</time>
      </trkpt>
      <trkpt lat="44.65358" lon="5.64623">
        <ele>1735</ele>
        <time>2021-10-09T09:33:30Z</time>
      </trkpt>
      <trkpt lat="44.65345" lon="5.64609">
        <ele>1735</ele>
        <time>2021-10-09T09:33:59Z</time>
      </trkpt>
      <trkpt lat="44.65337" lon="5.64594">
        <ele>1733</ele>
        <time>2021-10-09T09:34:45Z</time>
      </trkpt>
      <trkpt lat="44.65327" lon="5.64596">
        <ele>1733</ele>
        <time>2021-10-09T09:35:46Z</time>
      </trkpt>
      <trkpt lat="44.65322" lon="5.64584">
        <ele>1739</ele>
        <time>2021-10-09T09:36:16Z</time>
      </trkpt>
      <trkpt lat="44.65315" lon="5.64571">
        <ele>1731</ele>
        <time>2021-10-09T09:37:16Z</time>
      </trkpt>
      <trkpt lat="44.65306" lon="5.64568">
        <ele>1725</ele>
        <time>2021-10-09T09:37:35Z</time>
      </trkpt>
      <trkpt lat="44.65298" lon="5.64568">
        <ele>1726</ele>
        <time>2021-10-09T09:37:59Z</time>
      </trkpt>
      <trkpt lat="44.65297" lon="5.64556">
        <ele>1728</ele>
        <time>2021-10-09T09:39:10Z</time>
      </trkpt>
      <trkpt lat="44.65304" lon="5.64547">
        <ele>1728</ele>
        <time>2021-10-09T09:40:42Z</time>
      </trkpt>
      <trkpt lat="44.65314" lon="5.6454">
        <ele>1730</ele>
        <time>2021-10-09T09:41:22Z</time>
      </trkpt>
      <trkpt lat="44.65325" lon="5.64534">
        <ele>1731</ele>
        <time>2021-10-09T09:44:26Z</time>
      </trkpt>
      <trkpt lat="44.65317" lon="5.64526">
        <ele>1715</ele>
        <time>2021-10-09T09:45:40Z</time>
      </trkpt>
      <trkpt lat="44.65306" lon="5.64512">
        <ele>1706</ele>
        <time>2021-10-09T09:46:08Z</time>
      </trkpt>
      <trkpt lat="44.65312" lon="5.64506">
        <ele>1720</ele>
        <time>2021-10-09T09:47:23Z</time>
      </trkpt>
      <trkpt lat="44.65318" lon="5.64501">
        <ele>1727</ele>
        <time>2021-10-09T09:55:09Z</time>
      </trkpt>
      <trkpt lat="44.65323" lon="5.64491">
        <ele>1720</ele>
        <time>2021-10-09T09:55:18Z</time>
      </trkpt>
      <trkpt lat="44.65331" lon="5.64483">
        <ele>1713</ele>
        <time>2021-10-09T09:55:49Z</time>
      </trkpt>
      <trkpt lat="44.65341" lon="5.64471">
        <ele>1709</ele>
        <time>2021-10-09T09:56:12Z</time>
      </trkpt>
      <trkpt lat="44.6535" lon="5.64465">
        <ele>1713</ele>
        <time>2021-10-09T09:56:43Z</time>
      </trkpt>
      <trkpt lat="44.65354" lon="5.64453">
        <ele>1711</ele>
        <time>2021-10-09T09:56:53Z</time>
      </trkpt>
      <trkpt lat="44.65354" lon="5.6444">
        <ele>1708</ele>
        <time>2021-10-09T09:57:05Z</time>
      </trkpt>
      <trkpt lat="44.65364" lon="5.64432">
        <ele>1708</ele>
        <time>2021-10-09T09:57:21Z</time>
      </trkpt>
      <trkpt lat="44.65368" lon="5.64419">
        <ele>1709</ele>
        <time>2021-10-09T09:57:31Z</time>
      </trkpt>
      <trkpt lat="44.65349" lon="5.64384">
        <ele>1705</ele>
        <time>2021-10-09T09:58:12Z</time>
      </trkpt>
      <trkpt lat="44.65341" lon="5.64369">
        <ele>1703</ele>
        <time>2021-10-09T09:58:27Z</time>
      </trkpt>
      <trkpt lat="44.65347" lon="5.64359">
        <ele>1704</ele>
        <time>2021-10-09T10:00:56Z</time>
      </trkpt>
      <trkpt lat="44.65355" lon="5.64352">
        <ele>1704</ele>
        <time>2021-10-09T10:01:05Z</time>
      </trkpt>
      <trkpt lat="44.65358" lon="5.64339">
        <ele>1702</ele>
        <time>2021-10-09T10:01:14Z</time>
      </trkpt>
      <trkpt lat="44.65356" lon="5.64324">
        <ele>1700</ele>
        <time>2021-10-09T10:01:24Z</time>
      </trkpt>
      <trkpt lat="44.65355" lon="5.64309">
        <ele>1693</ele>
        <time>2021-10-09T10:01:36Z</time>
      </trkpt>
      <trkpt lat="44.65352" lon="5.64296">
        <ele>1689</ele>
        <time>2021-10-09T10:02:37Z</time>
      </trkpt>
      <trkpt lat="44.65353" lon="5.64286">
        <ele>1689</ele>
        <time>2021-10-09T10:04:46Z</time>
      </trkpt>
      <trkpt lat="44.65358" lon="5.64276">
        <ele>1689</ele>
        <time>2021-10-09T10:06:06Z</time>
      </trkpt>
      <trkpt lat="44.65368" lon="5.64275">
        <ele>1689</ele>
        <time>2021-10-09T10:06:18Z</time>
      </trkpt>
      <trkpt lat="44.65376" lon="5.64273">
        <ele>1683</ele>
        <time>2021-10-09T10:06:43Z</time>
      </trkpt>
      <trkpt lat="44.65386" lon="5.64274">
        <ele>1684</ele>
        <time>2021-10-09T10:07:00Z</time>
      </trkpt>
      <trkpt lat="44.65397" lon="5.64268">
        <ele>1683</ele>
        <time>2021-10-09T10:07:11Z</time>
      </trkpt>
      <trkpt lat="44.65421" lon="5.64251">
        <ele>1674</ele>
        <time>2021-10-09T10:07:42Z</time>
      </trkpt>
      <trkpt lat="44.6543" lon="5.64241">
        <ele>1673</ele>
        <time>2021-10-09T10:07:56Z</time>
      </trkpt>
      <trkpt lat="44.65447" lon="5.64238">
        <ele>1672</ele>
        <time>2021-10-09T10:08:12Z</time>
      </trkpt>
      <trkpt lat="44.65458" lon="5.64232">
        <ele>1674</ele>
        <time>2021-10-09T10:08:28Z</time>
      </trkpt>
      <trkpt lat="44.65467" lon="5.64223">
        <ele>1673</ele>
        <time>2021-10-09T10:08:40Z</time>
      </trkpt>
      <trkpt lat="44.65475" lon="5.64215">
        <ele>1671</ele>
        <time>2021-10-09T10:09:25Z</time>
      </trkpt>
      <trkpt lat="44.65493" lon="5.64197">
        <ele>1669</ele>
        <time>2021-10-09T10:09:49Z</time>
      </trkpt>
      <trkpt lat="44.65499" lon="5.64186">
        <ele>1668</ele>
        <time>2021-10-09T10:10:01Z</time>
      </trkpt>
      <trkpt lat="44.65507" lon="5.64173">
        <ele>1665</ele>
        <time>2021-10-09T10:10:23Z</time>
      </trkpt>
      <trkpt lat="44.65514" lon="5.6416">
        <ele>1662</ele>
        <time>2021-10-09T10:10:36Z</time>
      </trkpt>
      <trkpt lat="44.65517" lon="5.64144">
        <ele>1659</ele>
        <time>2021-10-09T10:10:49Z</time>
      </trkpt>
      <trkpt lat="44.65517" lon="5.64131">
        <ele>1655</ele>
        <time>2021-10-09T10:11:20Z</time>
      </trkpt>
      <trkpt lat="44.65524" lon="5.64121">
        <ele>1661</ele>
        <time>2021-10-09T10:29:43Z</time>
      </trkpt>
      <trkpt lat="44.65526" lon="5.64101">
        <ele>1661</ele>
        <time>2021-10-09T10:30:11Z</time>
      </trkpt>
      <trkpt lat="44.65524" lon="5.64095">
        <ele>1657</ele>
        <time>2021-10-09T10:32:15Z</time>
      </trkpt>
      <trkpt lat="44.65522" lon="5.64102">
        <ele>1664</ele>
        <time>2021-10-09T10:41:50Z</time>
      </trkpt>
      <trkpt lat="44.65501" lon="5.64088">
        <ele>1662</ele>
        <time>2021-10-09T10:42:31Z</time>
      </trkpt>
      <trkpt lat="44.65482" lon="5.64084">
        <ele>1659</ele>
        <time>2021-10-09T10:43:02Z</time>
      </trkpt>
      <trkpt lat="44.65455" lon="5.64075">
        <ele>1659</ele>
        <time>2021-10-09T10:43:56Z</time>
      </trkpt>
      <trkpt lat="44.65432" lon="5.64069">
        <ele>1662</ele>
        <time>2021-10-09T10:44:24Z</time>
      </trkpt>
      <trkpt lat="44.6542" lon="5.64064">
        <ele>1665</ele>
        <time>2021-10-09T10:44:51Z</time>
      </trkpt>
      <trkpt lat="44.65409" lon="5.64057">
        <ele>1668</ele>
        <time>2021-10-09T10:45:11Z</time>
      </trkpt>
      <trkpt lat="44.65377" lon="5.64051">
        <ele>1674</ele>
        <time>2021-10-09T10:46:00Z</time>
      </trkpt>
      <trkpt lat="44.65369" lon="5.64048">
        <ele>1678</ele>
        <time>2021-10-09T10:46:17Z</time>
      </trkpt>
      <trkpt lat="44.65345" lon="5.64036">
        <ele>1681</ele>
        <time>2021-10-09T10:46:58Z</time>
      </trkpt>
      <trkpt lat="44.65341" lon="5.6402">
        <ele>1688</ele>
        <time>2021-10-09T10:47:38Z</time>
      </trkpt>
      <trkpt lat="44.65329" lon="5.64006">
        <ele>1695</ele>
        <time>2021-10-09T10:48:00Z</time>
      </trkpt>
      <trkpt lat="44.6532" lon="5.64001">
        <ele>1694</ele>
        <time>2021-10-09T10:48:17Z</time>
      </trkpt>
      <trkpt lat="44.65311" lon="5.63992">
        <ele>1696</ele>
        <time>2021-10-09T10:48:34Z</time>
      </trkpt>
      <trkpt lat="44.65296" lon="5.63987">
        <ele>1695</ele>
        <time>2021-10-09T10:48:57Z</time>
      </trkpt>
      <trkpt lat="44.65285" lon="5.63975">
        <ele>1698</ele>
        <time>2021-10-09T10:49:23Z</time>
      </trkpt>
      <trkpt lat="44.65274" lon="5.63953">
        <ele>1700</ele>
        <time>2021-10-09T10:49:49Z</time>
      </trkpt>
      <trkpt lat="44.65264" lon="5.63945">
        <ele>1703</ele>
        <time>2021-10-09T10:50:03Z</time>
      </trkpt>
      <trkpt lat="44.65258" lon="5.63931">
        <ele>1702</ele>
        <time>2021-10-09T10:50:15Z</time>
      </trkpt>
      <trkpt lat="44.65241" lon="5.63904">
        <ele>1700</ele>
        <time>2021-10-09T10:50:46Z</time>
      </trkpt>
      <trkpt lat="44.65235" lon="5.63892">
        <ele>1702</ele>
        <time>2021-10-09T10:51:05Z</time>
      </trkpt>
      <trkpt lat="44.65226" lon="5.63885">
        <ele>1700</ele>
        <time>2021-10-09T10:51:14Z</time>
      </trkpt>
      <trkpt lat="44.65213" lon="5.63863">
        <ele>1698</ele>
        <time>2021-10-09T10:51:37Z</time>
      </trkpt>
      <trkpt lat="44.65205" lon="5.63853">
        <ele>1696</ele>
        <time>2021-10-09T10:51:50Z</time>
      </trkpt>
      <trkpt lat="44.65196" lon="5.63838">
        <ele>1694</ele>
        <time>2021-10-09T10:52:07Z</time>
      </trkpt>
      <trkpt lat="44.65197" lon="5.63825">
        <ele>1695</ele>
        <time>2021-10-09T10:52:17Z</time>
      </trkpt>
      <trkpt lat="44.65197" lon="5.63813">
        <ele>1698</ele>
        <time>2021-10-09T10:52:24Z</time>
      </trkpt>
      <trkpt lat="44.65191" lon="5.6379">
        <ele>1703</ele>
        <time>2021-10-09T10:52:44Z</time>
      </trkpt>
      <trkpt lat="44.65179" lon="5.63769">
        <ele>1720</ele>
        <time>2021-10-09T10:56:26Z</time>
      </trkpt>
      <trkpt lat="44.65177" lon="5.63783">
        <ele>1739</ele>
        <time>2021-10-09T11:00:40Z</time>
      </trkpt>
      <trkpt lat="44.65172" lon="5.63791">
        <ele>1739</ele>
        <time>2021-10-09T11:00:55Z</time>
      </trkpt>
      <trkpt lat="44.6517" lon="5.63807">
        <ele>1739</ele>
        <time>2021-10-09T11:01:11Z</time>
      </trkpt>
      <trkpt lat="44.65164" lon="5.63826">
        <ele>1742</ele>
        <time>2021-10-09T11:01:40Z</time>
      </trkpt>
      <trkpt lat="44.65159" lon="5.63836">
        <ele>1749</ele>
        <time>2021-10-09T11:02:02Z</time>
      </trkpt>
      <trkpt lat="44.65154" lon="5.63853">
        <ele>1752</ele>
        <time>2021-10-09T11:02:30Z</time>
      </trkpt>
      <trkpt lat="44.65156" lon="5.63867">
        <ele>1755</ele>
        <time>2021-10-09T11:02:54Z</time>
      </trkpt>
      <trkpt lat="44.65153" lon="5.6388">
        <ele>1763</ele>
        <time>2021-10-09T11:03:24Z</time>
      </trkpt>
      <trkpt lat="44.65147" lon="5.63889">
        <ele>1764</ele>
        <time>2021-10-09T11:03:42Z</time>
      </trkpt>
      <trkpt lat="44.65143" lon="5.63902">
        <ele>1767</ele>
        <time>2021-10-09T11:04:06Z</time>
      </trkpt>
      <trkpt lat="44.65144" lon="5.63914">
        <ele>1774</ele>
        <time>2021-10-09T11:04:38Z</time>
      </trkpt>
      <trkpt lat="44.65151" lon="5.63923">
        <ele>1781</ele>
        <time>2021-10-09T11:05:00Z</time>
      </trkpt>
      <trkpt lat="44.65154" lon="5.63935">
        <ele>1788</ele>
        <time>2021-10-09T11:05:27Z</time>
      </trkpt>
      <trkpt lat="44.65162" lon="5.63944">
        <ele>1792</ele>
        <time>2021-10-09T11:05:47Z</time>
      </trkpt>
      <trkpt lat="44.65161" lon="5.63958">
        <ele>1794</ele>
        <time>2021-10-09T11:06:15Z</time>
      </trkpt>
      <trkpt lat="44.65156" lon="5.63967">
        <ele>1795</ele>
        <time>2021-10-09T11:06:38Z</time>
      </trkpt>
      <trkpt lat="44.65151" lon="5.63976">
        <ele>1799</ele>
        <time>2021-10-09T11:07:01Z</time>
      </trkpt>
      <trkpt lat="44.65154" lon="5.63989">
        <ele>1806</ele>
        <time>2021-10-09T11:07:26Z</time>
      </trkpt>
      <trkpt lat="44.65151" lon="5.64002">
        <ele>1809</ele>
        <time>2021-10-09T11:07:44Z</time>
      </trkpt>
      <trkpt lat="44.65141" lon="5.64025">
        <ele>1814</ele>
        <time>2021-10-09T11:08:25Z</time>
      </trkpt>
      <trkpt lat="44.65146" lon="5.64033">
        <ele>1817</ele>
        <time>2021-10-09T11:08:47Z</time>
      </trkpt>
      <trkpt lat="44.65155" lon="5.6406">
        <ele>1829</ele>
        <time>2021-10-09T11:09:33Z</time>
      </trkpt>
      <trkpt lat="44.65152" lon="5.64072">
        <ele>1832</ele>
        <time>2021-10-09T11:09:59Z</time>
      </trkpt>
      <trkpt lat="44.65148" lon="5.64081">
        <ele>1834</ele>
        <time>2021-10-09T11:10:16Z</time>
      </trkpt>
      <trkpt lat="44.65147" lon="5.64094">
        <ele>1837</ele>
        <time>2021-10-09T11:10:39Z</time>
      </trkpt>
      <trkpt lat="44.6514" lon="5.64106">
        <ele>1842</ele>
        <time>2021-10-09T11:10:55Z</time>
      </trkpt>
      <trkpt lat="44.65134" lon="5.64121">
        <ele>1847</ele>
        <time>2021-10-09T11:11:17Z</time>
      </trkpt>
      <trkpt lat="44.6514" lon="5.64138">
        <ele>1854</ele>
        <time>2021-10-09T11:11:46Z</time>
      </trkpt>
      <trkpt lat="44.65146" lon="5.64149">
        <ele>1857</ele>
        <time>2021-10-09T11:12:05Z</time>
      </trkpt>
      <trkpt lat="44.65147" lon="5.64162">
        <ele>1861</ele>
        <time>2021-10-09T11:12:23Z</time>
      </trkpt>
      <trkpt lat="44.65143" lon="5.64171">
        <ele>1863</ele>
        <time>2021-10-09T11:15:14Z</time>
      </trkpt>
      <trkpt lat="44.65147" lon="5.64181">
        <ele>1862</ele>
        <time>2021-10-09T11:52:26Z</time>
      </trkpt>
      <trkpt lat="44.65152" lon="5.64195">
        <ele>1861</ele>
        <time>2021-10-09T11:52:44Z</time>
      </trkpt>
      <trkpt lat="44.65156" lon="5.6421">
        <ele>1856</ele>
        <time>2021-10-09T11:53:01Z</time>
      </trkpt>
      <trkpt lat="44.65157" lon="5.64221">
        <ele>1854</ele>
        <time>2021-10-09T11:53:14Z</time>
      </trkpt>
      <trkpt lat="44.65168" lon="5.64257">
        <ele>1840</ele>
        <time>2021-10-09T11:54:21Z</time>
      </trkpt>
      <trkpt lat="44.65169" lon="5.64272">
        <ele>1836</ele>
        <time>2021-10-09T11:54:37Z</time>
      </trkpt>
      <trkpt lat="44.65175" lon="5.64289">
        <ele>1830</ele>
        <time>2021-10-09T11:55:02Z</time>
      </trkpt>
      <trkpt lat="44.65178" lon="5.64298">
        <ele>1826</ele>
        <time>2021-10-09T11:55:13Z</time>
      </trkpt>
      <trkpt lat="44.65183" lon="5.64317">
        <ele>1821</ele>
        <time>2021-10-09T11:55:36Z</time>
      </trkpt>
      <trkpt lat="44.65188" lon="5.64329">
        <ele>1817</ele>
        <time>2021-10-09T11:56:19Z</time>
      </trkpt>
      <trkpt lat="44.65192" lon="5.6434">
        <ele>1814</ele>
        <time>2021-10-09T11:56:35Z</time>
      </trkpt>
      <trkpt lat="44.65198" lon="5.6435">
        <ele>1811</ele>
        <time>2021-10-09T11:56:46Z</time>
      </trkpt>
      <trkpt lat="44.65203" lon="5.64361">
        <ele>1809</ele>
        <time>2021-10-09T11:57:00Z</time>
      </trkpt>
      <trkpt lat="44.6521" lon="5.64382">
        <ele>1803</ele>
        <time>2021-10-09T11:57:22Z</time>
      </trkpt>
      <trkpt lat="44.65216" lon="5.64394">
        <ele>1801</ele>
        <time>2021-10-09T11:57:32Z</time>
      </trkpt>
      <trkpt lat="44.65217" lon="5.64407">
        <ele>1798</ele>
        <time>2021-10-09T11:57:43Z</time>
      </trkpt>
      <trkpt lat="44.65224" lon="5.64424">
        <ele>1798</ele>
        <time>2021-10-09T11:57:57Z</time>
      </trkpt>
      <trkpt lat="44.65231" lon="5.64441">
        <ele>1795</ele>
        <time>2021-10-09T11:58:14Z</time>
      </trkpt>
      <trkpt lat="44.65235" lon="5.64455">
        <ele>1791</ele>
        <time>2021-10-09T11:58:26Z</time>
      </trkpt>
      <trkpt lat="44.65241" lon="5.64466">
        <ele>1791</ele>
        <time>2021-10-09T11:58:34Z</time>
      </trkpt>
      <trkpt lat="44.65242" lon="5.64496">
        <ele>1793</ele>
        <time>2021-10-09T11:58:52Z</time>
      </trkpt>
      <trkpt lat="44.65238" lon="5.64517">
        <ele>1796</ele>
        <time>2021-10-09T11:59:08Z</time>
      </trkpt>
      <trkpt lat="44.65237" lon="5.64533">
        <ele>1797</ele>
        <time>2021-10-09T11:59:19Z</time>
      </trkpt>
      <trkpt lat="44.65242" lon="5.64559">
        <ele>1797</ele>
        <time>2021-10-09T11:59:37Z</time>
      </trkpt>
      <trkpt lat="44.65239" lon="5.64604">
        <ele>1799</ele>
        <time>2021-10-09T12:00:07Z</time>
      </trkpt>
      <trkpt lat="44.65236" lon="5.64623">
        <ele>1797</ele>
        <time>2021-10-09T12:00:19Z</time>
      </trkpt>
      <trkpt lat="44.65236" lon="5.64638">
        <ele>1799</ele>
        <time>2021-10-09T12:00:34Z</time>
      </trkpt>
      <trkpt lat="44.65235" lon="5.64648">
        <ele>1801</ele>
        <time>2021-10-09T12:00:49Z</time>
      </trkpt>
      <trkpt lat="44.65233" lon="5.64661">
        <ele>1804</ele>
        <time>2021-10-09T12:01:08Z</time>
      </trkpt>
      <trkpt lat="44.65226" lon="5.64683">
        <ele>1810</ele>
        <time>2021-10-09T12:01:39Z</time>
      </trkpt>
      <trkpt lat="44.65222" lon="5.64698">
        <ele>1815</ele>
        <time>2021-10-09T12:02:03Z</time>
      </trkpt>
      <trkpt lat="44.65213" lon="5.64728">
        <ele>1822</ele>
        <time>2021-10-09T12:02:47Z</time>
      </trkpt>
      <trkpt lat="44.6521" lon="5.64742">
        <ele>1827</ele>
        <time>2021-10-09T12:03:09Z</time>
      </trkpt>
      <trkpt lat="44.6521" lon="5.64755">
        <ele>1830</ele>
        <time>2021-10-09T12:03:26Z</time>
      </trkpt>
      <trkpt lat="44.65216" lon="5.64762">
        <ele>1832</ele>
        <time>2021-10-09T12:03:43Z</time>
      </trkpt>
      <trkpt lat="44.65233" lon="5.64763">
        <ele>1840</ele>
        <time>2021-10-09T12:04:21Z</time>
      </trkpt>
      <trkpt lat="44.65247" lon="5.64767">
        <ele>1842</ele>
        <time>2021-10-09T12:04:43Z</time>
      </trkpt>
      <trkpt lat="44.65253" lon="5.64775">
        <ele>1846</ele>
        <time>2021-10-09T12:05:06Z</time>
      </trkpt>
      <trkpt lat="44.65246" lon="5.64788">
        <ele>1853</ele>
        <time>2021-10-09T12:05:24Z</time>
      </trkpt>
      <trkpt lat="44.65243" lon="5.64802">
        <ele>1855</ele>
        <time>2021-10-09T12:05:41Z</time>
      </trkpt>
      <trkpt lat="44.65242" lon="5.64815">
        <ele>1857</ele>
        <time>2021-10-09T12:05:56Z</time>
      </trkpt>
      <trkpt lat="44.6525" lon="5.64832">
        <ele>1858</ele>
        <time>2021-10-09T12:06:17Z</time>
      </trkpt>
      <trkpt lat="44.65265" lon="5.64856">
        <ele>1860</ele>
        <time>2021-10-09T12:06:47Z</time>
      </trkpt>
      <trkpt lat="44.65281" lon="5.64882">
        <ele>1861</ele>
        <time>2021-10-09T12:07:17Z</time>
      </trkpt>
      <trkpt lat="44.65301" lon="5.64916">
        <ele>1866</ele>
        <time>2021-10-09T12:07:53Z</time>
      </trkpt>
      <trkpt lat="44.65308" lon="5.6492">
        <ele>1867</ele>
        <time>2021-10-09T12:08:02Z</time>
      </trkpt>
      <trkpt lat="44.65323" lon="5.64929">
        <ele>1870</ele>
        <time>2021-10-09T12:08:21Z</time>
      </trkpt>
      <trkpt lat="44.65331" lon="5.64936">
        <ele>1873</ele>
        <time>2021-10-09T12:08:34Z</time>
      </trkpt>
      <trkpt lat="44.6534" lon="5.64962">
        <ele>1880</ele>
        <time>2021-10-09T12:09:04Z</time>
      </trkpt>
      <trkpt lat="44.65342" lon="5.64972">
        <ele>1882</ele>
        <time>2021-10-09T12:09:17Z</time>
      </trkpt>
      <trkpt lat="44.65349" lon="5.64988">
        <ele>1885</ele>
        <time>2021-10-09T12:09:34Z</time>
      </trkpt>
      <trkpt lat="44.65372" lon="5.65007">
        <ele>1885</ele>
        <time>2021-10-09T12:10:08Z</time>
      </trkpt>
      <trkpt lat="44.654" lon="5.65028">
        <ele>1885</ele>
        <time>2021-10-09T12:12:25Z</time>
      </trkpt>
      <trkpt lat="44.65429" lon="5.6505">
        <ele>1881</ele>
        <time>2021-10-09T12:12:56Z</time>
      </trkpt>
      <trkpt lat="44.65441" lon="5.65058">
        <ele>1882</ele>
        <time>2021-10-09T12:13:09Z</time>
      </trkpt>
      <trkpt lat="44.65448" lon="5.65063">
        <ele>1885</ele>
        <time>2021-10-09T12:13:18Z</time>
      </trkpt>
      <trkpt lat="44.65473" lon="5.65108">
        <ele>1888</ele>
        <time>2021-10-09T12:14:02Z</time>
      </trkpt>
      <trkpt lat="44.65498" lon="5.65154">
        <ele>1888</ele>
        <time>2021-10-09T12:14:39Z</time>
      </trkpt>
      <trkpt lat="44.65506" lon="5.65164">
        <ele>1888</ele>
        <time>2021-10-09T12:14:51Z</time>
      </trkpt>
      <trkpt lat="44.65524" lon="5.65186">
        <ele>1887</ele>
        <time>2021-10-09T12:15:15Z</time>
      </trkpt>
      <trkpt lat="44.65535" lon="5.65185">
        <ele>1886</ele>
        <time>2021-10-09T12:15:45Z</time>
      </trkpt>
      <trkpt lat="44.65546" lon="5.6516">
        <ele>1883</ele>
        <time>2021-10-09T12:16:24Z</time>
      </trkpt>
      <trkpt lat="44.65554" lon="5.6515">
        <ele>1885</ele>
        <time>2021-10-09T12:16:38Z</time>
      </trkpt>
      <trkpt lat="44.65563" lon="5.65152">
        <ele>1877</ele>
        <time>2021-10-09T12:19:55Z</time>
      </trkpt>
      <trkpt lat="44.6557" lon="5.65143">
        <ele>1869</ele>
        <time>2021-10-09T12:20:13Z</time>
      </trkpt>
      <trkpt lat="44.65578" lon="5.65147">
        <ele>1868</ele>
        <time>2021-10-09T12:20:31Z</time>
      </trkpt>
      <trkpt lat="44.65579" lon="5.65159">
        <ele>1866</ele>
        <time>2021-10-09T12:20:41Z</time>
      </trkpt>
      <trkpt lat="44.65581" lon="5.65162">
        <ele>1855</ele>
        <time>2021-10-09T12:34:16Z</time>
      </trkpt>
      <trkpt lat="44.65588" lon="5.65157">
        <ele>1861</ele>
        <time>2021-10-09T13:01:50Z</time>
      </trkpt>
      <trkpt lat="44.65594" lon="5.65147">
        <ele>1857</ele>
        <time>2021-10-09T13:02:47Z</time>
      </trkpt>
      <trkpt lat="44.65613" lon="5.65131">
        <ele>1852</ele>
        <time>2021-10-09T13:03:53Z</time>
      </trkpt>
      <trkpt lat="44.65621" lon="5.65124">
        <ele>1849</ele>
        <time>2021-10-09T13:04:07Z</time>
      </trkpt>
      <trkpt lat="44.65634" lon="5.65118">
        <ele>1848</ele>
        <time>2021-10-09T13:04:25Z</time>
      </trkpt>
      <trkpt lat="44.65646" lon="5.65114">
        <ele>1839</ele>
        <time>2021-10-09T13:04:58Z</time>
      </trkpt>
      <trkpt lat="44.65655" lon="5.65112">
        <ele>1831</ele>
        <time>2021-10-09T13:05:33Z</time>
      </trkpt>
      <trkpt lat="44.65672" lon="5.65108">
        <ele>1819</ele>
        <time>2021-10-09T13:06:06Z</time>
      </trkpt>
      <trkpt lat="44.65688" lon="5.65096">
        <ele>1809</ele>
        <time>2021-10-09T13:06:37Z</time>
      </trkpt>
      <trkpt lat="44.65695" lon="5.65092">
        <ele>1808</ele>
        <time>2021-10-09T13:06:43Z</time>
      </trkpt>
      <trkpt lat="44.65716" lon="5.65078">
        <ele>1803</ele>
        <time>2021-10-09T13:07:06Z</time>
      </trkpt>
      <trkpt lat="44.65731" lon="5.65074">
        <ele>1799</ele>
        <time>2021-10-09T13:07:21Z</time>
      </trkpt>
      <trkpt lat="44.65752" lon="5.65071">
        <ele>1788</ele>
        <time>2021-10-09T13:07:45Z</time>
      </trkpt>
      <trkpt lat="44.65764" lon="5.65071">
        <ele>1785</ele>
        <time>2021-10-09T13:08:06Z</time>
      </trkpt>
      <trkpt lat="44.65777" lon="5.65071">
        <ele>1780</ele>
        <time>2021-10-09T13:08:23Z</time>
      </trkpt>
      <trkpt lat="44.65787" lon="5.65069">
        <ele>1775</ele>
        <time>2021-10-09T13:08:38Z</time>
      </trkpt>
      <trkpt lat="44.65795" lon="5.65071">
        <ele>1770</ele>
        <time>2021-10-09T13:09:16Z</time>
      </trkpt>
      <trkpt lat="44.65793" lon="5.65083">
        <ele>1763</ele>
        <time>2021-10-09T13:09:28Z</time>
      </trkpt>
      <trkpt lat="44.65808" lon="5.65078">
        <ele>1762</ele>
        <time>2021-10-09T13:12:37Z</time>
      </trkpt>
      <trkpt lat="44.65859" lon="5.65075">
        <ele>1747</ele>
        <time>2021-10-09T13:13:08Z</time>
      </trkpt>
      <trkpt lat="44.65905" lon="5.65087">
        <ele>1733</ele>
        <time>2021-10-09T13:13:41Z</time>
      </trkpt>
      <trkpt lat="44.65948" lon="5.65099">
        <ele>1724</ele>
        <time>2021-10-09T13:14:11Z</time>
      </trkpt>
      <trkpt lat="44.65974" lon="5.65109">
        <ele>1719</ele>
        <time>2021-10-09T13:14:28Z</time>
      </trkpt>
      <trkpt lat="44.66026" lon="5.65132">
        <ele>1716</ele>
        <time>2021-10-09T13:15:07Z</time>
      </trkpt>
      <trkpt lat="44.66064" lon="5.65146">
        <ele>1712</ele>
        <time>2021-10-09T13:15:38Z</time>
      </trkpt>
      <trkpt lat="44.66089" lon="5.6515">
        <ele>1714</ele>
        <time>2021-10-09T13:16:06Z</time>
      </trkpt>
      <trkpt lat="44.66109" lon="5.65147">
        <ele>1719</ele>
        <time>2021-10-09T13:16:33Z</time>
      </trkpt>
      <trkpt lat="44.66124" lon="5.65148">
        <ele>1721</ele>
        <time>2021-10-09T13:16:54Z</time>
      </trkpt>
      <trkpt lat="44.66132" lon="5.65147">
        <ele>1725</ele>
        <time>2021-10-09T13:17:09Z</time>
      </trkpt>
      <trkpt lat="44.66159" lon="5.6515">
        <ele>1729</ele>
        <time>2021-10-09T13:17:35Z</time>
      </trkpt>
      <trkpt lat="44.66181" lon="5.65154">
        <ele>1732</ele>
        <time>2021-10-09T13:17:56Z</time>
      </trkpt>
      <trkpt lat="44.66222" lon="5.65158">
        <ele>1736</ele>
        <time>2021-10-09T13:18:37Z</time>
      </trkpt>
      <trkpt lat="44.6623" lon="5.65148">
        <ele>1735</ele>
        <time>2021-10-09T13:18:49Z</time>
      </trkpt>
      <trkpt lat="44.66237" lon="5.65131">
        <ele>1735</ele>
        <time>2021-10-09T13:19:04Z</time>
      </trkpt>
      <trkpt lat="44.66237" lon="5.65117">
        <ele>1733</ele>
        <time>2021-10-09T13:19:17Z</time>
      </trkpt>
      <trkpt lat="44.66234" lon="5.65096">
        <ele>1727</ele>
        <time>2021-10-09T13:19:34Z</time>
      </trkpt>
      <trkpt lat="44.66232" lon="5.65082">
        <ele>1725</ele>
        <time>2021-10-09T13:19:44Z</time>
      </trkpt>
      <trkpt lat="44.66234" lon="5.65072">
        <ele>1724</ele>
        <time>2021-10-09T13:19:51Z</time>
      </trkpt>
      <trkpt lat="44.66251" lon="5.6506">
        <ele>1722</ele>
        <time>2021-10-09T13:20:06Z</time>
      </trkpt>
      <trkpt lat="44.66257" lon="5.65049">
        <ele>1721</ele>
        <time>2021-10-09T13:20:22Z</time>
      </trkpt>
      <trkpt lat="44.66262" lon="5.65036">
        <ele>1717</ele>
        <time>2021-10-09T13:20:37Z</time>
      </trkpt>
      <trkpt lat="44.66272" lon="5.65027">
        <ele>1713</ele>
        <time>2021-10-09T13:20:47Z</time>
      </trkpt>
      <trkpt lat="44.66279" lon="5.65025">
        <ele>1712</ele>
        <time>2021-10-09T13:20:54Z</time>
      </trkpt>
      <trkpt lat="44.66289" lon="5.65017">
        <ele>1707</ele>
        <time>2021-10-09T13:21:05Z</time>
      </trkpt>
      <trkpt lat="44.66296" lon="5.65015">
        <ele>1707</ele>
        <time>2021-10-09T13:21:12Z</time>
      </trkpt>
      <trkpt lat="44.66318" lon="5.65017">
        <ele>1701</ele>
        <time>2021-10-09T13:21:30Z</time>
      </trkpt>
      <trkpt lat="44.66325" lon="5.65015">
        <ele>1698</ele>
        <time>2021-10-09T13:21:37Z</time>
      </trkpt>
      <trkpt lat="44.66336" lon="5.65008">
        <ele>1696</ele>
        <time>2021-10-09T13:21:48Z</time>
      </trkpt>
      <trkpt lat="44.66344" lon="5.65004">
        <ele>1693</ele>
        <time>2021-10-09T13:21:54Z</time>
      </trkpt>
      <trkpt lat="44.66383" lon="5.65008">
        <ele>1690</ele>
        <time>2021-10-09T13:22:25Z</time>
      </trkpt>
      <trkpt lat="44.66404" lon="5.65012">
        <ele>1688</ele>
        <time>2021-10-09T13:22:41Z</time>
      </trkpt>
      <trkpt lat="44.66424" lon="5.65008">
        <ele>1686</ele>
        <time>2021-10-09T13:22:58Z</time>
      </trkpt>
      <trkpt lat="44.66461" lon="5.65016">
        <ele>1684</ele>
        <time>2021-10-09T13:23:31Z</time>
      </trkpt>
      <trkpt lat="44.66494" lon="5.65027">
        <ele>1680</ele>
        <time>2021-10-09T13:24:01Z</time>
      </trkpt>
      <trkpt lat="44.66519" lon="5.65034">
        <ele>1673</ele>
        <time>2021-10-09T13:24:24Z</time>
      </trkpt>
      <trkpt lat="44.66538" lon="5.65043">
        <ele>1670</ele>
        <time>2021-10-09T13:24:40Z</time>
      </trkpt>
      <trkpt lat="44.66544" lon="5.65056">
        <ele>1669</ele>
        <time>2021-10-09T13:24:50Z</time>
      </trkpt>
      <trkpt lat="44.66552" lon="5.65062">
        <ele>1666</ele>
        <time>2021-10-09T13:24:59Z</time>
      </trkpt>
      <trkpt lat="44.66558" lon="5.65072">
        <ele>1662</ele>
        <time>2021-10-09T13:25:11Z</time>
      </trkpt>
      <trkpt lat="44.66588" lon="5.65083">
        <ele>1652</ele>
        <time>2021-10-09T13:25:43Z</time>
      </trkpt>
      <trkpt lat="44.66597" lon="5.65086">
        <ele>1652</ele>
        <time>2021-10-09T13:25:58Z</time>
      </trkpt>
      <trkpt lat="44.66605" lon="5.65092">
        <ele>1651</ele>
        <time>2021-10-09T13:26:17Z</time>
      </trkpt>
      <trkpt lat="44.66617" lon="5.65095">
        <ele>1650</ele>
        <time>2021-10-09T13:26:33Z</time>
      </trkpt>
      <trkpt lat="44.66624" lon="5.65093">
        <ele>1648</ele>
        <time>2021-10-09T13:26:50Z</time>
      </trkpt>
      <trkpt lat="44.66633" lon="5.65089">
        <ele>1643</ele>
        <time>2021-10-09T13:27:02Z</time>
      </trkpt>
      <trkpt lat="44.66648" lon="5.65089">
        <ele>1639</ele>
        <time>2021-10-09T13:27:23Z</time>
      </trkpt>
      <trkpt lat="44.66675" lon="5.65086">
        <ele>1624</ele>
        <time>2021-10-09T13:27:57Z</time>
      </trkpt>
      <trkpt lat="44.66689" lon="5.6507">
        <ele>1609</ele>
        <time>2021-10-09T13:28:32Z</time>
      </trkpt>
      <trkpt lat="44.66682" lon="5.6506">
        <ele>1600</ele>
        <time>2021-10-09T13:28:54Z</time>
      </trkpt>
      <trkpt lat="44.66677" lon="5.65047">
        <ele>1597</ele>
        <time>2021-10-09T13:29:08Z</time>
      </trkpt>
      <trkpt lat="44.66681" lon="5.65037">
        <ele>1592</ele>
        <time>2021-10-09T13:29:28Z</time>
      </trkpt>
      <trkpt lat="44.66685" lon="5.65009">
        <ele>1579</ele>
        <time>2021-10-09T13:30:06Z</time>
      </trkpt>
      <trkpt lat="44.66688" lon="5.64999">
        <ele>1570</ele>
        <time>2021-10-09T13:30:31Z</time>
      </trkpt>
      <trkpt lat="44.66695" lon="5.64992">
        <ele>1561</ele>
        <time>2021-10-09T13:31:08Z</time>
      </trkpt>
      <trkpt lat="44.66698" lon="5.6498">
        <ele>1555</ele>
        <time>2021-10-09T13:31:23Z</time>
      </trkpt>
      <trkpt lat="44.66714" lon="5.64985">
        <ele>1546</ele>
        <time>2021-10-09T13:31:53Z</time>
      </trkpt>
      <trkpt lat="44.66735" lon="5.64997">
        <ele>1543</ele>
        <time>2021-10-09T13:32:15Z</time>
      </trkpt>
      <trkpt lat="44.66745" lon="5.64998">
        <ele>1541</ele>
        <time>2021-10-09T13:32:29Z</time>
      </trkpt>
      <trkpt lat="44.66774" lon="5.65002">
        <ele>1536</ele>
        <time>2021-10-09T13:33:03Z</time>
      </trkpt>
      <trkpt lat="44.6679" lon="5.65005">
        <ele>1533</ele>
        <time>2021-10-09T13:33:19Z</time>
      </trkpt>
      <trkpt lat="44.66802" lon="5.65006">
        <ele>1531</ele>
        <time>2021-10-09T13:33:29Z</time>
      </trkpt>
      <trkpt lat="44.66828" lon="5.64982">
        <ele>1522</ele>
        <time>2021-10-09T13:33:52Z</time>
      </trkpt>
      <trkpt lat="44.66837" lon="5.64969">
        <ele>1519</ele>
        <time>2021-10-09T13:34:05Z</time>
      </trkpt>
      <trkpt lat="44.66847" lon="5.6496">
        <ele>1516</ele>
        <time>2021-10-09T13:34:18Z</time>
      </trkpt>
      <trkpt lat="44.66877" lon="5.6495">
        <ele>1504</ele>
        <time>2021-10-09T13:34:43Z</time>
      </trkpt>
      <trkpt lat="44.66901" lon="5.64931">
        <ele>1502</ele>
        <time>2021-10-09T13:35:05Z</time>
      </trkpt>
      <trkpt lat="44.66939" lon="5.64925">
        <ele>1492</ele>
        <time>2021-10-09T13:35:36Z</time>
      </trkpt>
      <trkpt lat="44.6695" lon="5.64923">
        <ele>1490</ele>
        <time>2021-10-09T13:35:44Z</time>
      </trkpt>
      <trkpt lat="44.66975" lon="5.64917">
        <ele>1488</ele>
        <time>2021-10-09T13:36:03Z</time>
      </trkpt>
      <trkpt lat="44.66986" lon="5.64928">
        <ele>1486</ele>
        <time>2021-10-09T13:36:16Z</time>
      </trkpt>
      <trkpt lat="44.67028" lon="5.64948">
        <ele>1483</ele>
        <time>2021-10-09T13:36:51Z</time>
      </trkpt>
      <trkpt lat="44.6705" lon="5.64966">
        <ele>1480</ele>
        <time>2021-10-09T13:37:11Z</time>
      </trkpt>
      <trkpt lat="44.67077" lon="5.64987">
        <ele>1475</ele>
        <time>2021-10-09T13:37:34Z</time>
      </trkpt>
      <trkpt lat="44.67097" lon="5.64995">
        <ele>1475</ele>
        <time>2021-10-09T13:37:49Z</time>
      </trkpt>
      <trkpt lat="44.67109" lon="5.6501">
        <ele>1475</ele>
        <time>2021-10-09T13:38:02Z</time>
      </trkpt>
      <trkpt lat="44.67121" lon="5.65033">
        <ele>1476</ele>
        <time>2021-10-09T13:38:20Z</time>
      </trkpt>
      <trkpt lat="44.67126" lon="5.6504">
        <ele>1478</ele>
        <time>2021-10-09T13:38:30Z</time>
      </trkpt>
      <trkpt lat="44.67137" lon="5.65055">
        <ele>1482</ele>
        <time>2021-10-09T13:38:46Z</time>
      </trkpt>
      <trkpt lat="44.67172" lon="5.65082">
        <ele>1483</ele>
        <time>2021-10-09T13:39:20Z</time>
      </trkpt>
      <trkpt lat="44.67203" lon="5.65084">
        <ele>1486</ele>
        <time>2021-10-09T13:39:50Z</time>
      </trkpt>
      <trkpt lat="44.67214" lon="5.65081">
        <ele>1493</ele>
        <time>2021-10-09T13:40:10Z</time>
      </trkpt>
      <trkpt lat="44.67223" lon="5.65081">
        <ele>1494</ele>
        <time>2021-10-09T13:40:21Z</time>
      </trkpt>
      <trkpt lat="44.67231" lon="5.65086">
        <ele>1494</ele>
        <time>2021-10-09T13:40:28Z</time>
      </trkpt>
      <trkpt lat="44.67238" lon="5.65092">
        <ele>1494</ele>
        <time>2021-10-09T13:40:35Z</time>
      </trkpt>
      <trkpt lat="44.67266" lon="5.65099">
        <ele>1494</ele>
        <time>2021-10-09T13:40:56Z</time>
      </trkpt>
      <trkpt lat="44.67292" lon="5.65107">
        <ele>1491</ele>
        <time>2021-10-09T13:41:24Z</time>
      </trkpt>
      <trkpt lat="44.67308" lon="5.6512">
        <ele>1491</ele>
        <time>2021-10-09T13:41:38Z</time>
      </trkpt>
      <trkpt lat="44.6734" lon="5.65151">
        <ele>1488</ele>
        <time>2021-10-09T13:42:15Z</time>
      </trkpt>
      <trkpt lat="44.67349" lon="5.65162">
        <ele>1486</ele>
        <time>2021-10-09T13:42:28Z</time>
      </trkpt>
      <trkpt lat="44.67365" lon="5.65175">
        <ele>1484</ele>
        <time>2021-10-09T13:42:41Z</time>
      </trkpt>
      <trkpt lat="44.67399" lon="5.65188">
        <ele>1482</ele>
        <time>2021-10-09T13:43:13Z</time>
      </trkpt>
      <trkpt lat="44.67417" lon="5.65195">
        <ele>1484</ele>
        <time>2021-10-09T13:43:28Z</time>
      </trkpt>
      <trkpt lat="44.67425" lon="5.65201">
        <ele>1484</ele>
        <time>2021-10-09T13:43:36Z</time>
      </trkpt>
      <trkpt lat="44.6743" lon="5.6521">
        <ele>1485</ele>
        <time>2021-10-09T13:43:42Z</time>
      </trkpt>
      <trkpt lat="44.67439" lon="5.6522">
        <ele>1490</ele>
        <time>2021-10-09T13:43:49Z</time>
      </trkpt>
      <trkpt lat="44.67452" lon="5.65229">
        <ele>1495</ele>
        <time>2021-10-09T13:44:01Z</time>
      </trkpt>
      <trkpt lat="44.67457" lon="5.65237">
        <ele>1496</ele>
        <time>2021-10-09T13:44:06Z</time>
      </trkpt>
      <trkpt lat="44.67466" lon="5.65242">
        <ele>1499</ele>
        <time>2021-10-09T13:44:15Z</time>
      </trkpt>
      <trkpt lat="44.67488" lon="5.65244">
        <ele>1503</ele>
        <time>2021-10-09T13:44:30Z</time>
      </trkpt>
      <trkpt lat="44.67504" lon="5.65235">
        <ele>1503</ele>
        <time>2021-10-09T13:44:44Z</time>
      </trkpt>
      <trkpt lat="44.67525" lon="5.65217">
        <ele>1505</ele>
        <time>2021-10-09T13:45:05Z</time>
      </trkpt>
      <trkpt lat="44.67541" lon="5.65209">
        <ele>1505</ele>
        <time>2021-10-09T13:45:21Z</time>
      </trkpt>
      <trkpt lat="44.67554" lon="5.65193">
        <ele>1507</ele>
        <time>2021-10-09T13:45:37Z</time>
      </trkpt>
      <trkpt lat="44.67558" lon="5.65172">
        <ele>1508</ele>
        <time>2021-10-09T13:45:49Z</time>
      </trkpt>
      <trkpt lat="44.67555" lon="5.65156">
        <ele>1505</ele>
        <time>2021-10-09T13:46:01Z</time>
      </trkpt>
      <trkpt lat="44.67549" lon="5.65137">
        <ele>1501</ele>
        <time>2021-10-09T13:46:13Z</time>
      </trkpt>
      <trkpt lat="44.67548" lon="5.65122">
        <ele>1500</ele>
        <time>2021-10-09T13:46:21Z</time>
      </trkpt>
      <trkpt lat="44.67542" lon="5.65086">
        <ele>1492</ele>
        <time>2021-10-09T13:46:44Z</time>
      </trkpt>
      <trkpt lat="44.67534" lon="5.65055">
        <ele>1485</ele>
        <time>2021-10-09T13:47:05Z</time>
      </trkpt>
      <trkpt lat="44.67529" lon="5.65046">
        <ele>1492</ele>
        <time>2021-10-09T13:47:59Z</time>
      </trkpt>
      <trkpt lat="44.67534" lon="5.65">
        <ele>1489</ele>
        <time>2021-10-09T13:48:29Z</time>
      </trkpt>
      <trkpt lat="44.67535" lon="5.64988">
        <ele>1487</ele>
        <time>2021-10-09T13:48:36Z</time>
      </trkpt>
      <trkpt lat="44.67539" lon="5.64973">
        <ele>1489</ele>
        <time>2021-10-09T13:48:49Z</time>
      </trkpt>
      <trkpt lat="44.67548" lon="5.64964">
        <ele>1492</ele>
        <time>2021-10-09T13:49:05Z</time>
      </trkpt>
      <trkpt lat="44.67555" lon="5.64957">
        <ele>1494</ele>
        <time>2021-10-09T13:49:17Z</time>
      </trkpt>
      <trkpt lat="44.67598" lon="5.64914">
        <ele>1494</ele>
        <time>2021-10-09T13:50:16Z</time>
      </trkpt>
      <trkpt lat="44.67603" lon="5.64907">
        <ele>1492</ele>
        <time>2021-10-09T13:50:23Z</time>
      </trkpt>
      <trkpt lat="44.6761" lon="5.64899">
        <ele>1490</ele>
        <time>2021-10-09T13:50:30Z</time>
      </trkpt>
      <trkpt lat="44.67616" lon="5.64892">
        <ele>1488</ele>
        <time>2021-10-09T13:50:38Z</time>
      </trkpt>
      <trkpt lat="44.67623" lon="5.64882">
        <ele>1486</ele>
        <time>2021-10-09T13:50:46Z</time>
      </trkpt>
      <trkpt lat="44.6764" lon="5.64855">
        <ele>1484</ele>
        <time>2021-10-09T13:51:08Z</time>
      </trkpt>
      <trkpt lat="44.67646" lon="5.64844">
        <ele>1482</ele>
        <time>2021-10-09T13:51:19Z</time>
      </trkpt>
      <trkpt lat="44.67657" lon="5.64848">
        <ele>1479</ele>
        <time>2021-10-09T13:51:34Z</time>
      </trkpt>
      <trkpt lat="44.67668" lon="5.64851">
        <ele>1474</ele>
        <time>2021-10-09T13:51:48Z</time>
      </trkpt>
      <trkpt lat="44.67676" lon="5.64858">
        <ele>1469</ele>
        <time>2021-10-09T13:52:20Z</time>
      </trkpt>
      <trkpt lat="44.67684" lon="5.6487">
        <ele>1468</ele>
        <time>2021-10-09T13:52:37Z</time>
      </trkpt>
      <trkpt lat="44.67696" lon="5.64881">
        <ele>1453</ele>
        <time>2021-10-09T13:53:22Z</time>
      </trkpt>
      <trkpt lat="44.67702" lon="5.64891">
        <ele>1451</ele>
        <time>2021-10-09T13:53:42Z</time>
      </trkpt>
      <trkpt lat="44.67711" lon="5.64892">
        <ele>1443</ele>
        <time>2021-10-09T13:54:19Z</time>
      </trkpt>
      <trkpt lat="44.67722" lon="5.64879">
        <ele>1441</ele>
        <time>2021-10-09T13:54:37Z</time>
      </trkpt>
      <trkpt lat="44.67727" lon="5.64869">
        <ele>1438</ele>
        <time>2021-10-09T13:54:47Z</time>
      </trkpt>
      <trkpt lat="44.67745" lon="5.64855">
        <ele>1438</ele>
        <time>2021-10-09T13:55:07Z</time>
      </trkpt>
      <trkpt lat="44.67765" lon="5.64855">
        <ele>1442</ele>
        <time>2021-10-09T13:55:40Z</time>
      </trkpt>
      <trkpt lat="44.6778" lon="5.64857">
        <ele>1441</ele>
        <time>2021-10-09T13:55:53Z</time>
      </trkpt>
      <trkpt lat="44.67794" lon="5.64853">
        <ele>1439</ele>
        <time>2021-10-09T13:56:07Z</time>
      </trkpt>
      <trkpt lat="44.67807" lon="5.64844">
        <ele>1438</ele>
        <time>2021-10-09T13:56:21Z</time>
      </trkpt>
      <trkpt lat="44.67815" lon="5.64835">
        <ele>1435</ele>
        <time>2021-10-09T13:56:29Z</time>
      </trkpt>
      <trkpt lat="44.67824" lon="5.64822">
        <ele>1433</ele>
        <time>2021-10-09T13:56:38Z</time>
      </trkpt>
      <trkpt lat="44.67828" lon="5.64812">
        <ele>1433</ele>
        <time>2021-10-09T13:56:46Z</time>
      </trkpt>
      <trkpt lat="44.6784" lon="5.64759">
        <ele>1431</ele>
        <time>2021-10-09T13:57:19Z</time>
      </trkpt>
      <trkpt lat="44.67847" lon="5.64748">
        <ele>1429</ele>
        <time>2021-10-09T13:57:26Z</time>
      </trkpt>
      <trkpt lat="44.67855" lon="5.64744">
        <ele>1429</ele>
        <time>2021-10-09T13:57:40Z</time>
      </trkpt>
      <trkpt lat="44.67882" lon="5.64768">
        <ele>1433</ele>
        <time>2021-10-09T13:58:13Z</time>
      </trkpt>
      <trkpt lat="44.67893" lon="5.64776">
        <ele>1433</ele>
        <time>2021-10-09T13:58:22Z</time>
      </trkpt>
      <trkpt lat="44.679" lon="5.64788">
        <ele>1432</ele>
        <time>2021-10-09T13:58:35Z</time>
      </trkpt>
      <trkpt lat="44.67915" lon="5.64799">
        <ele>1431</ele>
        <time>2021-10-09T13:58:50Z</time>
      </trkpt>
      <trkpt lat="44.67926" lon="5.648">
        <ele>1429</ele>
        <time>2021-10-09T13:59:00Z</time>
      </trkpt>
      <trkpt lat="44.67947" lon="5.64802">
        <ele>1425</ele>
        <time>2021-10-09T13:59:16Z</time>
      </trkpt>
      <trkpt lat="44.67958" lon="5.64821">
        <ele>1424</ele>
        <time>2021-10-09T13:59:27Z</time>
      </trkpt>
      <trkpt lat="44.67977" lon="5.64848">
        <ele>1431</ele>
        <time>2021-10-09T13:59:49Z</time>
      </trkpt>
      <trkpt lat="44.67989" lon="5.64868">
        <ele>1437</ele>
        <time>2021-10-09T14:00:03Z</time>
      </trkpt>
      <trkpt lat="44.67999" lon="5.64879">
        <ele>1441</ele>
        <time>2021-10-09T14:00:12Z</time>
      </trkpt>
      <trkpt lat="44.68024" lon="5.64886">
        <ele>1442</ele>
        <time>2021-10-09T14:00:30Z</time>
      </trkpt>
      <trkpt lat="44.68062" lon="5.64905">
        <ele>1445</ele>
        <time>2021-10-09T14:01:02Z</time>
      </trkpt>
      <trkpt lat="44.68074" lon="5.64919">
        <ele>1447</ele>
        <time>2021-10-09T14:01:17Z</time>
      </trkpt>
      <trkpt lat="44.68082" lon="5.64923">
        <ele>1446</ele>
        <time>2021-10-09T14:01:24Z</time>
      </trkpt>
      <trkpt lat="44.68096" lon="5.64945">
        <ele>1446</ele>
        <time>2021-10-09T14:01:39Z</time>
      </trkpt>
      <trkpt lat="44.68099" lon="5.64955">
        <ele>1445</ele>
        <time>2021-10-09T14:01:46Z</time>
      </trkpt>
      <trkpt lat="44.68105" lon="5.64964">
        <ele>1445</ele>
        <time>2021-10-09T14:01:52Z</time>
      </trkpt>
      <trkpt lat="44.68113" lon="5.64981">
        <ele>1445</ele>
        <time>2021-10-09T14:02:04Z</time>
      </trkpt>
      <trkpt lat="44.68149" lon="5.65015">
        <ele>1448</ele>
        <time>2021-10-09T14:02:39Z</time>
      </trkpt>
      <trkpt lat="44.68167" lon="5.65054">
        <ele>1450</ele>
        <time>2021-10-09T14:03:06Z</time>
      </trkpt>
      <trkpt lat="44.68187" lon="5.65084">
        <ele>1451</ele>
        <time>2021-10-09T14:03:28Z</time>
      </trkpt>
      <trkpt lat="44.68206" lon="5.65098">
        <ele>1450</ele>
        <time>2021-10-09T14:03:44Z</time>
      </trkpt>
      <trkpt lat="44.68219" lon="5.65109">
        <ele>1445</ele>
        <time>2021-10-09T14:03:54Z</time>
      </trkpt>
      <trkpt lat="44.68237" lon="5.65112">
        <ele>1444</ele>
        <time>2021-10-09T14:04:09Z</time>
      </trkpt>
      <trkpt lat="44.68246" lon="5.65112">
        <ele>1442</ele>
        <time>2021-10-09T14:04:17Z</time>
      </trkpt>
      <trkpt lat="44.68256" lon="5.65116">
        <ele>1440</ele>
        <time>2021-10-09T14:04:25Z</time>
      </trkpt>
      <trkpt lat="44.68284" lon="5.65107">
        <ele>1434</ele>
        <time>2021-10-09T14:04:48Z</time>
      </trkpt>
      <trkpt lat="44.68292" lon="5.65115">
        <ele>1431</ele>
        <time>2021-10-09T14:04:57Z</time>
      </trkpt>
      <trkpt lat="44.68299" lon="5.65119">
        <ele>1431</ele>
        <time>2021-10-09T14:05:03Z</time>
      </trkpt>
      <trkpt lat="44.6831" lon="5.65132">
        <ele>1433</ele>
        <time>2021-10-09T14:05:12Z</time>
      </trkpt>
      <trkpt lat="44.68317" lon="5.65142">
        <ele>1436</ele>
        <time>2021-10-09T14:05:20Z</time>
      </trkpt>
      <trkpt lat="44.68332" lon="5.65159">
        <ele>1438</ele>
        <time>2021-10-09T14:05:34Z</time>
      </trkpt>
      <trkpt lat="44.68362" lon="5.65179">
        <ele>1440</ele>
        <time>2021-10-09T14:06:02Z</time>
      </trkpt>
      <trkpt lat="44.68369" lon="5.65193">
        <ele>1441</ele>
        <time>2021-10-09T14:06:13Z</time>
      </trkpt>
      <trkpt lat="44.68369" lon="5.65204">
        <ele>1442</ele>
        <time>2021-10-09T14:06:19Z</time>
      </trkpt>
      <trkpt lat="44.6837" lon="5.65214">
        <ele>1444</ele>
        <time>2021-10-09T14:06:25Z</time>
      </trkpt>
      <trkpt lat="44.68372" lon="5.65225">
        <ele>1445</ele>
        <time>2021-10-09T14:06:31Z</time>
      </trkpt>
      <trkpt lat="44.68383" lon="5.65242">
        <ele>1445</ele>
        <time>2021-10-09T14:06:46Z</time>
      </trkpt>
      <trkpt lat="44.684" lon="5.65257">
        <ele>1443</ele>
        <time>2021-10-09T14:07:06Z</time>
      </trkpt>
      <trkpt lat="44.68408" lon="5.65265">
        <ele>1441</ele>
        <time>2021-10-09T14:07:14Z</time>
      </trkpt>
      <trkpt lat="44.6842" lon="5.65277">
        <ele>1438</ele>
        <time>2021-10-09T14:07:27Z</time>
      </trkpt>
      <trkpt lat="44.68431" lon="5.65283">
        <ele>1435</ele>
        <time>2021-10-09T14:07:37Z</time>
      </trkpt>
      <trkpt lat="44.68476" lon="5.65297">
        <ele>1432</ele>
        <time>2021-10-09T14:08:12Z</time>
      </trkpt>
      <trkpt lat="44.68498" lon="5.65295">
        <ele>1433</ele>
        <time>2021-10-09T14:08:30Z</time>
      </trkpt>
      <trkpt lat="44.68504" lon="5.65308">
        <ele>1436</ele>
        <time>2021-10-09T14:08:39Z</time>
      </trkpt>
      <trkpt lat="44.68524" lon="5.65324">
        <ele>1436</ele>
        <time>2021-10-09T14:08:57Z</time>
      </trkpt>
      <trkpt lat="44.68542" lon="5.65344">
        <ele>1437</ele>
        <time>2021-10-09T14:09:17Z</time>
      </trkpt>
      <trkpt lat="44.68554" lon="5.65359">
        <ele>1440</ele>
        <time>2021-10-09T14:09:34Z</time>
      </trkpt>
      <trkpt lat="44.68555" lon="5.65372">
        <ele>1440</ele>
        <time>2021-10-09T14:09:45Z</time>
      </trkpt>
      <trkpt lat="44.68555" lon="5.65396">
        <ele>1438</ele>
        <time>2021-10-09T14:10:03Z</time>
      </trkpt>
      <trkpt lat="44.68562" lon="5.65404">
        <ele>1438</ele>
        <time>2021-10-09T14:10:12Z</time>
      </trkpt>
      <trkpt lat="44.68581" lon="5.65412">
        <ele>1429</ele>
        <time>2021-10-09T14:10:34Z</time>
      </trkpt>
      <trkpt lat="44.68611" lon="5.65409">
        <ele>1419</ele>
        <time>2021-10-09T14:11:05Z</time>
      </trkpt>
      <trkpt lat="44.68623" lon="5.65404">
        <ele>1416</ele>
        <time>2021-10-09T14:11:16Z</time>
      </trkpt>
      <trkpt lat="44.68636" lon="5.65404">
        <ele>1414</ele>
        <time>2021-10-09T14:11:30Z</time>
      </trkpt>
      <trkpt lat="44.68653" lon="5.654">
        <ele>1412</ele>
        <time>2021-10-09T14:11:43Z</time>
      </trkpt>
      <trkpt lat="44.68675" lon="5.65396">
        <ele>1407</ele>
        <time>2021-10-09T14:11:59Z</time>
      </trkpt>
      <trkpt lat="44.68696" lon="5.65394">
        <ele>1401</ele>
        <time>2021-10-09T14:12:22Z</time>
      </trkpt>
      <trkpt lat="44.68706" lon="5.65389">
        <ele>1399</ele>
        <time>2021-10-09T14:12:32Z</time>
      </trkpt>
      <trkpt lat="44.68713" lon="5.65386">
        <ele>1397</ele>
        <time>2021-10-09T14:12:39Z</time>
      </trkpt>
      <trkpt lat="44.68728" lon="5.65377">
        <ele>1394</ele>
        <time>2021-10-09T14:12:53Z</time>
      </trkpt>
      <trkpt lat="44.68755" lon="5.65354">
        <ele>1385</ele>
        <time>2021-10-09T14:13:27Z</time>
      </trkpt>
      <trkpt lat="44.68761" lon="5.65347">
        <ele>1384</ele>
        <time>2021-10-09T14:13:35Z</time>
      </trkpt>
      <trkpt lat="44.68773" lon="5.65337">
        <ele>1381</ele>
        <time>2021-10-09T14:13:47Z</time>
      </trkpt>
      <trkpt lat="44.688" lon="5.65299">
        <ele>1370</ele>
        <time>2021-10-09T14:14:21Z</time>
      </trkpt>
      <trkpt lat="44.68802" lon="5.65288">
        <ele>1369</ele>
        <time>2021-10-09T14:14:29Z</time>
      </trkpt>
      <trkpt lat="44.68814" lon="5.65269">
        <ele>1368</ele>
        <time>2021-10-09T14:14:49Z</time>
      </trkpt>
      <trkpt lat="44.68824" lon="5.65265">
        <ele>1365</ele>
        <time>2021-10-09T14:15:03Z</time>
      </trkpt>
      <trkpt lat="44.68845" lon="5.65277">
        <ele>1364</ele>
        <time>2021-10-09T14:15:27Z</time>
      </trkpt>
      <trkpt lat="44.68852" lon="5.65283">
        <ele>1363</ele>
        <time>2021-10-09T14:15:41Z</time>
      </trkpt>
      <trkpt lat="44.68858" lon="5.65288">
        <ele>1360</ele>
        <time>2021-10-09T14:15:51Z</time>
      </trkpt>
      <trkpt lat="44.68875" lon="5.65309">
        <ele>1358</ele>
        <time>2021-10-09T14:16:13Z</time>
      </trkpt>
      <trkpt lat="44.68892" lon="5.65321">
        <ele>1356</ele>
        <time>2021-10-09T14:16:37Z</time>
      </trkpt>
      <trkpt lat="44.68902" lon="5.65322">
        <ele>1352</ele>
        <time>2021-10-09T14:16:48Z</time>
      </trkpt>
      <trkpt lat="44.68911" lon="5.65322">
        <ele>1348</ele>
        <time>2021-10-09T14:16:55Z</time>
      </trkpt>
      <trkpt lat="44.68924" lon="5.65327">
        <ele>1346</ele>
        <time>2021-10-09T14:17:07Z</time>
      </trkpt>
      <trkpt lat="44.68932" lon="5.6533">
        <ele>1342</ele>
        <time>2021-10-09T14:17:21Z</time>
      </trkpt>
      <trkpt lat="44.68943" lon="5.65333">
        <ele>1340</ele>
        <time>2021-10-09T14:17:31Z</time>
      </trkpt>
      <trkpt lat="44.68963" lon="5.65332">
        <ele>1338</ele>
        <time>2021-10-09T14:17:52Z</time>
      </trkpt>
      <trkpt lat="44.68971" lon="5.65336">
        <ele>1335</ele>
        <time>2021-10-09T14:18:01Z</time>
      </trkpt>
      <trkpt lat="44.68984" lon="5.65337">
        <ele>1332</ele>
        <time>2021-10-09T14:18:13Z</time>
      </trkpt>
      <trkpt lat="44.69011" lon="5.6534">
        <ele>1328</ele>
        <time>2021-10-09T14:18:40Z</time>
      </trkpt>
      <trkpt lat="44.69123" lon="5.65392">
        <ele>1308</ele>
        <time>2021-10-09T14:20:57Z</time>
      </trkpt>
    </trkseg>
  </trk>
</gpx>